<?xml version="1.0" encoding="UTF-8" standalone="no" ?>
<gpx xmlns="http://www.topografix.com/GPX/1/1" xmlns:xsi="http://www.w3.org/2001/XMLSchema-instance" xsi:schemaLocation="http://www.topografix.com/GPX/1/1 http://www.topografix.com/GPX/1/1/gpx.xsd" version="1.1" creator="VisuGPX - https://www.visugpx.com">
  <metadata>
    <name>VOK Ste Foy Peyrolière lac 11Km</name>
    <desc><![CDATA[
]]></desc>
  </metadata>
  <trk>
    <name><![CDATA[VOK Ste Foy Peyrolière lac 11Km]]></name>
    <trkseg>
      <trkpt lat="43.49574" lon="1.13044">
        <ele>242</ele>
        <time>2020-01-15T16:47:37+01:00</time>
      </trkpt>
      <trkpt lat="43.49577" lon="1.13022">
        <ele>243</ele>
        <time>2020-01-15T16:47:50+01:00</time>
      </trkpt>
      <trkpt lat="43.49581" lon="1.13004">
        <ele>243</ele>
        <time>2020-01-15T16:48:01+01:00</time>
      </trkpt>
      <trkpt lat="43.49586" lon="1.12976">
        <ele>243</ele>
        <time>2020-01-15T16:48:18+01:00</time>
      </trkpt>
      <trkpt lat="43.49589" lon="1.1294">
        <ele>243</ele>
        <time>2020-01-15T16:48:39+01:00</time>
      </trkpt>
      <trkpt lat="43.49595" lon="1.12905">
        <ele>243</ele>
        <time>2020-01-15T16:49:00+01:00</time>
      </trkpt>
      <trkpt lat="43.49599" lon="1.12882">
        <ele>244</ele>
        <time>2020-01-15T16:49:14+01:00</time>
      </trkpt>
      <trkpt lat="43.49602" lon="1.12861">
        <ele>244</ele>
        <time>2020-01-15T16:49:26+01:00</time>
      </trkpt>
      <trkpt lat="43.49606" lon="1.12843">
        <ele>244</ele>
        <time>2020-01-15T16:49:37+01:00</time>
      </trkpt>
      <trkpt lat="43.49604" lon="1.12825">
        <ele>245</ele>
        <time>2020-01-15T16:49:48+01:00</time>
      </trkpt>
      <trkpt lat="43.496" lon="1.1281">
        <ele>245</ele>
        <time>2020-01-15T16:49:57+01:00</time>
      </trkpt>
      <trkpt lat="43.49602" lon="1.12789">
        <ele>245</ele>
        <time>2020-01-15T16:50:10+01:00</time>
      </trkpt>
      <trkpt lat="43.4961" lon="1.1274">
        <ele>246</ele>
        <time>2020-01-15T16:50:39+01:00</time>
      </trkpt>
      <trkpt lat="43.49618" lon="1.12689">
        <ele>247</ele>
        <time>2020-01-15T16:51:09+01:00</time>
      </trkpt>
      <trkpt lat="43.49624" lon="1.12655">
        <ele>247</ele>
        <time>2020-01-15T16:51:30+01:00</time>
      </trkpt>
      <trkpt lat="43.49629" lon="1.12626">
        <ele>247</ele>
        <time>2020-01-15T16:51:47+01:00</time>
      </trkpt>
      <trkpt lat="43.49635" lon="1.12602">
        <ele>246</ele>
        <time>2020-01-15T16:52:01+01:00</time>
      </trkpt>
      <trkpt lat="43.49638" lon="1.1258">
        <ele>246</ele>
        <time>2020-01-15T16:52:15+01:00</time>
      </trkpt>
      <trkpt lat="43.49642" lon="1.12552">
        <ele>247</ele>
        <time>2020-01-15T16:52:31+01:00</time>
      </trkpt>
      <trkpt lat="43.49645" lon="1.12524">
        <ele>246</ele>
        <time>2020-01-15T16:52:48+01:00</time>
      </trkpt>
      <trkpt lat="43.49651" lon="1.1249">
        <ele>246</ele>
        <time>2020-01-15T16:53:08+01:00</time>
      </trkpt>
      <trkpt lat="43.49655" lon="1.12462">
        <ele>246</ele>
        <time>2020-01-15T16:53:25+01:00</time>
      </trkpt>
      <trkpt lat="43.49659" lon="1.12436">
        <ele>246</ele>
        <time>2020-01-15T16:53:40+01:00</time>
      </trkpt>
      <trkpt lat="43.49664" lon="1.12412">
        <ele>246</ele>
        <time>2020-01-15T16:53:55+01:00</time>
      </trkpt>
      <trkpt lat="43.49666" lon="1.12393">
        <ele>247</ele>
        <time>2020-01-15T16:54:06+01:00</time>
      </trkpt>
      <trkpt lat="43.4967" lon="1.1237">
        <ele>247</ele>
        <time>2020-01-15T16:54:19+01:00</time>
      </trkpt>
      <trkpt lat="43.49671" lon="1.12347">
        <ele>247</ele>
        <time>2020-01-15T16:54:33+01:00</time>
      </trkpt>
      <trkpt lat="43.49677" lon="1.12332">
        <ele>247</ele>
        <time>2020-01-15T16:54:43+01:00</time>
      </trkpt>
      <trkpt lat="43.49687" lon="1.12319">
        <ele>246</ele>
        <time>2020-01-15T16:54:54+01:00</time>
      </trkpt>
      <trkpt lat="43.49692" lon="1.12291">
        <ele>247</ele>
        <time>2020-01-15T16:55:11+01:00</time>
      </trkpt>
      <trkpt lat="43.49694" lon="1.12267">
        <ele>247</ele>
        <time>2020-01-15T16:55:25+01:00</time>
      </trkpt>
      <trkpt lat="43.49698" lon="1.12234">
        <ele>247</ele>
        <time>2020-01-15T16:55:44+01:00</time>
      </trkpt>
      <trkpt lat="43.49703" lon="1.12201">
        <ele>248</ele>
        <time>2020-01-15T16:56:04+01:00</time>
      </trkpt>
      <trkpt lat="43.49708" lon="1.12174">
        <ele>247</ele>
        <time>2020-01-15T16:56:20+01:00</time>
      </trkpt>
      <trkpt lat="43.49714" lon="1.12143">
        <ele>248</ele>
        <time>2020-01-15T16:56:39+01:00</time>
      </trkpt>
      <trkpt lat="43.49719" lon="1.12113">
        <ele>247</ele>
        <time>2020-01-15T16:56:57+01:00</time>
      </trkpt>
      <trkpt lat="43.49723" lon="1.12088">
        <ele>248</ele>
        <time>2020-01-15T16:57:12+01:00</time>
      </trkpt>
      <trkpt lat="43.49725" lon="1.12065">
        <ele>248</ele>
        <time>2020-01-15T16:57:25+01:00</time>
      </trkpt>
      <trkpt lat="43.4973" lon="1.12042">
        <ele>248</ele>
        <time>2020-01-15T16:57:39+01:00</time>
      </trkpt>
      <trkpt lat="43.49732" lon="1.12019">
        <ele>248</ele>
        <time>2020-01-15T16:57:53+01:00</time>
      </trkpt>
      <trkpt lat="43.49733" lon="1.12004">
        <ele>248</ele>
        <time>2020-01-15T16:58:02+01:00</time>
      </trkpt>
      <trkpt lat="43.49748" lon="1.11974">
        <ele>246</ele>
        <time>2020-01-15T16:58:23+01:00</time>
      </trkpt>
      <trkpt lat="43.49761" lon="1.11949">
        <ele>246</ele>
        <time>2020-01-15T16:58:41+01:00</time>
      </trkpt>
      <trkpt lat="43.49768" lon="1.11923">
        <ele>245</ele>
        <time>2020-01-15T16:58:57+01:00</time>
      </trkpt>
      <trkpt lat="43.49778" lon="1.11886">
        <ele>245</ele>
        <time>2020-01-15T16:59:20+01:00</time>
      </trkpt>
      <trkpt lat="43.49785" lon="1.11854">
        <ele>245</ele>
        <time>2020-01-15T16:59:39+01:00</time>
      </trkpt>
      <trkpt lat="43.49789" lon="1.11823">
        <ele>245</ele>
        <time>2020-01-15T16:59:57+01:00</time>
      </trkpt>
      <trkpt lat="43.49794" lon="1.11773">
        <ele>245</ele>
        <time>2020-01-15T17:00:27+01:00</time>
      </trkpt>
      <trkpt lat="43.49797" lon="1.11733">
        <ele>247</ele>
        <time>2020-01-15T17:00:50+01:00</time>
      </trkpt>
      <trkpt lat="43.49801" lon="1.11699">
        <ele>249</ele>
        <time>2020-01-15T17:01:10+01:00</time>
      </trkpt>
      <trkpt lat="43.498" lon="1.11659">
        <ele>251</ele>
        <time>2020-01-15T17:01:34+01:00</time>
      </trkpt>
      <trkpt lat="43.498" lon="1.11636">
        <ele>252</ele>
        <time>2020-01-15T17:01:47+01:00</time>
      </trkpt>
      <trkpt lat="43.498" lon="1.11604">
        <ele>253</ele>
        <time>2020-01-15T17:02:05+01:00</time>
      </trkpt>
      <trkpt lat="43.49799" lon="1.11575">
        <ele>254</ele>
        <time>2020-01-15T17:02:22+01:00</time>
      </trkpt>
      <trkpt lat="43.49796" lon="1.1155">
        <ele>254</ele>
        <time>2020-01-15T17:02:37+01:00</time>
      </trkpt>
      <trkpt lat="43.49797" lon="1.11525">
        <ele>254</ele>
        <time>2020-01-15T17:02:52+01:00</time>
      </trkpt>
      <trkpt lat="43.49795" lon="1.11496">
        <ele>254</ele>
        <time>2020-01-15T17:03:09+01:00</time>
      </trkpt>
      <trkpt lat="43.49794" lon="1.11472">
        <ele>254</ele>
        <time>2020-01-15T17:03:23+01:00</time>
      </trkpt>
      <trkpt lat="43.49794" lon="1.11447">
        <ele>254</ele>
        <time>2020-01-15T17:03:38+01:00</time>
      </trkpt>
      <trkpt lat="43.49793" lon="1.11426">
        <ele>254</ele>
        <time>2020-01-15T17:03:50+01:00</time>
      </trkpt>
      <trkpt lat="43.49796" lon="1.11389">
        <ele>255</ele>
        <time>2020-01-15T17:04:12+01:00</time>
      </trkpt>
      <trkpt lat="43.498" lon="1.11366">
        <ele>255</ele>
        <time>2020-01-15T17:04:25+01:00</time>
      </trkpt>
      <trkpt lat="43.49804" lon="1.11338">
        <ele>256</ele>
        <time>2020-01-15T17:04:42+01:00</time>
      </trkpt>
      <trkpt lat="43.49807" lon="1.11312">
        <ele>256</ele>
        <time>2020-01-15T17:04:58+01:00</time>
      </trkpt>
      <trkpt lat="43.49809" lon="1.11291">
        <ele>256</ele>
        <time>2020-01-15T17:05:09+01:00</time>
      </trkpt>
      <trkpt lat="43.49814" lon="1.11268">
        <ele>257</ele>
        <time>2020-01-15T17:05:24+01:00</time>
      </trkpt>
      <trkpt lat="43.49823" lon="1.11239">
        <ele>257</ele>
        <time>2020-01-15T17:05:42+01:00</time>
      </trkpt>
      <trkpt lat="43.49839" lon="1.11209">
        <ele>256</ele>
        <time>2020-01-15T17:06:04+01:00</time>
      </trkpt>
      <trkpt lat="43.49852" lon="1.1117">
        <ele>255</ele>
        <time>2020-01-15T17:06:29+01:00</time>
      </trkpt>
      <trkpt lat="43.49863" lon="1.11135">
        <ele>254</ele>
        <time>2020-01-15T17:06:51+01:00</time>
      </trkpt>
      <trkpt lat="43.4987" lon="1.11098">
        <ele>252</ele>
        <time>2020-01-15T17:07:13+01:00</time>
      </trkpt>
      <trkpt lat="43.49875" lon="1.11065">
        <ele>252</ele>
        <time>2020-01-15T17:07:33+01:00</time>
      </trkpt>
      <trkpt lat="43.49878" lon="1.11036">
        <ele>253</ele>
        <time>2020-01-15T17:07:50+01:00</time>
      </trkpt>
      <trkpt lat="43.49882" lon="1.11009">
        <ele>254</ele>
        <time>2020-01-15T17:08:06+01:00</time>
      </trkpt>
      <trkpt lat="43.49886" lon="1.10973">
        <ele>255</ele>
        <time>2020-01-15T17:08:27+01:00</time>
      </trkpt>
      <trkpt lat="43.49889" lon="1.10944">
        <ele>255</ele>
        <time>2020-01-15T17:08:44+01:00</time>
      </trkpt>
      <trkpt lat="43.49892" lon="1.10912">
        <ele>256</ele>
        <time>2020-01-15T17:09:03+01:00</time>
      </trkpt>
      <trkpt lat="43.49892" lon="1.10889">
        <ele>256</ele>
        <time>2020-01-15T17:09:17+01:00</time>
      </trkpt>
      <trkpt lat="43.49883" lon="1.10861">
        <ele>256</ele>
        <time>2020-01-15T17:09:34+01:00</time>
      </trkpt>
      <trkpt lat="43.49877" lon="1.10839">
        <ele>256</ele>
        <time>2020-01-15T17:09:48+01:00</time>
      </trkpt>
      <trkpt lat="43.49868" lon="1.10817">
        <ele>257</ele>
        <time>2020-01-15T17:10:03+01:00</time>
      </trkpt>
      <trkpt lat="43.49863" lon="1.10794">
        <ele>257</ele>
        <time>2020-01-15T17:10:16+01:00</time>
      </trkpt>
      <trkpt lat="43.49859" lon="1.10772">
        <ele>257</ele>
        <time>2020-01-15T17:10:30+01:00</time>
      </trkpt>
      <trkpt lat="43.49855" lon="1.10746">
        <ele>257</ele>
        <time>2020-01-15T17:10:45+01:00</time>
      </trkpt>
      <trkpt lat="43.49849" lon="1.10722">
        <ele>257</ele>
        <time>2020-01-15T17:11:00+01:00</time>
      </trkpt>
      <trkpt lat="43.49849" lon="1.10709">
        <ele>257</ele>
        <time>2020-01-15T17:11:08+01:00</time>
      </trkpt>
      <trkpt lat="43.49845" lon="1.10697">
        <ele>257</ele>
        <time>2020-01-15T17:11:15+01:00</time>
      </trkpt>
      <trkpt lat="43.49844" lon="1.10683">
        <ele>257</ele>
        <time>2020-01-15T17:11:23+01:00</time>
      </trkpt>
      <trkpt lat="43.49842" lon="1.1067">
        <ele>257</ele>
        <time>2020-01-15T17:11:31+01:00</time>
      </trkpt>
      <trkpt lat="43.49846" lon="1.10657">
        <ele>257</ele>
        <time>2020-01-15T17:11:39+01:00</time>
      </trkpt>
      <trkpt lat="43.49842" lon="1.10645">
        <ele>257</ele>
        <time>2020-01-15T17:11:47+01:00</time>
      </trkpt>
      <trkpt lat="43.4984" lon="1.10631">
        <ele>257</ele>
        <time>2020-01-15T17:11:55+01:00</time>
      </trkpt>
      <trkpt lat="43.49838" lon="1.10619">
        <ele>257</ele>
        <time>2020-01-15T17:12:03+01:00</time>
      </trkpt>
      <trkpt lat="43.49838" lon="1.10606">
        <ele>257</ele>
        <time>2020-01-15T17:12:10+01:00</time>
      </trkpt>
      <trkpt lat="43.4984" lon="1.10592">
        <ele>256</ele>
        <time>2020-01-15T17:12:18+01:00</time>
      </trkpt>
      <trkpt lat="43.4984" lon="1.10578">
        <ele>257</ele>
        <time>2020-01-15T17:12:26+01:00</time>
      </trkpt>
      <trkpt lat="43.49837" lon="1.10565">
        <ele>257</ele>
        <time>2020-01-15T17:12:34+01:00</time>
      </trkpt>
      <trkpt lat="43.49836" lon="1.10552">
        <ele>258</ele>
        <time>2020-01-15T17:12:42+01:00</time>
      </trkpt>
      <trkpt lat="43.49835" lon="1.10539">
        <ele>258</ele>
        <time>2020-01-15T17:12:50+01:00</time>
      </trkpt>
      <trkpt lat="43.49832" lon="1.10526">
        <ele>258</ele>
        <time>2020-01-15T17:12:58+01:00</time>
      </trkpt>
      <trkpt lat="43.4983" lon="1.10514">
        <ele>258</ele>
        <time>2020-01-15T17:13:05+01:00</time>
      </trkpt>
      <trkpt lat="43.49828" lon="1.10501">
        <ele>258</ele>
        <time>2020-01-15T17:13:13+01:00</time>
      </trkpt>
      <trkpt lat="43.49824" lon="1.10489">
        <ele>259</ele>
        <time>2020-01-15T17:13:20+01:00</time>
      </trkpt>
      <trkpt lat="43.49819" lon="1.10479">
        <ele>259</ele>
        <time>2020-01-15T17:13:27+01:00</time>
      </trkpt>
      <trkpt lat="43.49816" lon="1.10466">
        <ele>259</ele>
        <time>2020-01-15T17:13:35+01:00</time>
      </trkpt>
      <trkpt lat="43.4981" lon="1.10455">
        <ele>260</ele>
        <time>2020-01-15T17:13:43+01:00</time>
      </trkpt>
      <trkpt lat="43.49805" lon="1.10443">
        <ele>260</ele>
        <time>2020-01-15T17:13:51+01:00</time>
      </trkpt>
      <trkpt lat="43.49799" lon="1.10434">
        <ele>260</ele>
        <time>2020-01-15T17:13:58+01:00</time>
      </trkpt>
      <trkpt lat="43.49793" lon="1.10423">
        <ele>260</ele>
        <time>2020-01-15T17:14:07+01:00</time>
      </trkpt>
      <trkpt lat="43.49788" lon="1.1041">
        <ele>260</ele>
        <time>2020-01-15T17:14:15+01:00</time>
      </trkpt>
      <trkpt lat="43.49782" lon="1.10399">
        <ele>260</ele>
        <time>2020-01-15T17:14:23+01:00</time>
      </trkpt>
      <trkpt lat="43.49777" lon="1.10388">
        <ele>260</ele>
        <time>2020-01-15T17:14:30+01:00</time>
      </trkpt>
      <trkpt lat="43.49773" lon="1.10377">
        <ele>260</ele>
        <time>2020-01-15T17:14:38+01:00</time>
      </trkpt>
      <trkpt lat="43.49768" lon="1.10366">
        <ele>260</ele>
        <time>2020-01-15T17:14:45+01:00</time>
      </trkpt>
      <trkpt lat="43.49761" lon="1.10358">
        <ele>260</ele>
        <time>2020-01-15T17:14:53+01:00</time>
      </trkpt>
      <trkpt lat="43.4975" lon="1.10359">
        <ele>260</ele>
        <time>2020-01-15T17:15:01+01:00</time>
      </trkpt>
      <trkpt lat="43.49741" lon="1.1036">
        <ele>260</ele>
        <time>2020-01-15T17:15:09+01:00</time>
      </trkpt>
      <trkpt lat="43.49731" lon="1.10361">
        <ele>260</ele>
        <time>2020-01-15T17:15:17+01:00</time>
      </trkpt>
      <trkpt lat="43.49722" lon="1.10362">
        <ele>260</ele>
        <time>2020-01-15T17:15:24+01:00</time>
      </trkpt>
      <trkpt lat="43.49713" lon="1.10366">
        <ele>260</ele>
        <time>2020-01-15T17:15:32+01:00</time>
      </trkpt>
      <trkpt lat="43.49703" lon="1.10368">
        <ele>260</ele>
        <time>2020-01-15T17:15:40+01:00</time>
      </trkpt>
      <trkpt lat="43.49692" lon="1.10366">
        <ele>260</ele>
        <time>2020-01-15T17:15:48+01:00</time>
      </trkpt>
      <trkpt lat="43.49683" lon="1.10364">
        <ele>260</ele>
        <time>2020-01-15T17:15:56+01:00</time>
      </trkpt>
      <trkpt lat="43.49673" lon="1.10362">
        <ele>261</ele>
        <time>2020-01-15T17:16:04+01:00</time>
      </trkpt>
      <trkpt lat="43.49665" lon="1.10359">
        <ele>262</ele>
        <time>2020-01-15T17:16:11+01:00</time>
      </trkpt>
      <trkpt lat="43.49655" lon="1.10357">
        <ele>263</ele>
        <time>2020-01-15T17:16:19+01:00</time>
      </trkpt>
      <trkpt lat="43.49645" lon="1.10357">
        <ele>264</ele>
        <time>2020-01-15T17:16:27+01:00</time>
      </trkpt>
      <trkpt lat="43.49635" lon="1.10356">
        <ele>264</ele>
        <time>2020-01-15T17:16:35+01:00</time>
      </trkpt>
      <trkpt lat="43.49626" lon="1.10356">
        <ele>264</ele>
        <time>2020-01-15T17:16:42+01:00</time>
      </trkpt>
      <trkpt lat="43.49617" lon="1.10358">
        <ele>264</ele>
        <time>2020-01-15T17:16:50+01:00</time>
      </trkpt>
      <trkpt lat="43.49606" lon="1.10358">
        <ele>264</ele>
        <time>2020-01-15T17:16:58+01:00</time>
      </trkpt>
      <trkpt lat="43.49597" lon="1.10354">
        <ele>265</ele>
        <time>2020-01-15T17:17:06+01:00</time>
      </trkpt>
      <trkpt lat="43.49589" lon="1.10348">
        <ele>265</ele>
        <time>2020-01-15T17:17:13+01:00</time>
      </trkpt>
      <trkpt lat="43.49579" lon="1.10343">
        <ele>266</ele>
        <time>2020-01-15T17:17:22+01:00</time>
      </trkpt>
      <trkpt lat="43.49569" lon="1.10342">
        <ele>266</ele>
        <time>2020-01-15T17:17:29+01:00</time>
      </trkpt>
      <trkpt lat="43.49561" lon="1.10337">
        <ele>267</ele>
        <time>2020-01-15T17:17:37+01:00</time>
      </trkpt>
      <trkpt lat="43.49551" lon="1.10335">
        <ele>267</ele>
        <time>2020-01-15T17:17:45+01:00</time>
      </trkpt>
      <trkpt lat="43.49543" lon="1.1033">
        <ele>267</ele>
        <time>2020-01-15T17:17:52+01:00</time>
      </trkpt>
      <trkpt lat="43.49533" lon="1.10326">
        <ele>268</ele>
        <time>2020-01-15T17:18:00+01:00</time>
      </trkpt>
      <trkpt lat="43.49523" lon="1.10327">
        <ele>268</ele>
        <time>2020-01-15T17:18:08+01:00</time>
      </trkpt>
      <trkpt lat="43.49514" lon="1.1032">
        <ele>269</ele>
        <time>2020-01-15T17:18:16+01:00</time>
      </trkpt>
      <trkpt lat="43.49506" lon="1.10313">
        <ele>269</ele>
        <time>2020-01-15T17:18:24+01:00</time>
      </trkpt>
      <trkpt lat="43.49499" lon="1.10305">
        <ele>270</ele>
        <time>2020-01-15T17:18:31+01:00</time>
      </trkpt>
      <trkpt lat="43.4949" lon="1.103">
        <ele>271</ele>
        <time>2020-01-15T17:18:39+01:00</time>
      </trkpt>
      <trkpt lat="43.49479" lon="1.10299">
        <ele>271</ele>
        <time>2020-01-15T17:18:48+01:00</time>
      </trkpt>
      <trkpt lat="43.49469" lon="1.10304">
        <ele>271</ele>
        <time>2020-01-15T17:18:56+01:00</time>
      </trkpt>
      <trkpt lat="43.49459" lon="1.10302">
        <ele>271</ele>
        <time>2020-01-15T17:19:04+01:00</time>
      </trkpt>
      <trkpt lat="43.4945" lon="1.103">
        <ele>272</ele>
        <time>2020-01-15T17:19:11+01:00</time>
      </trkpt>
      <trkpt lat="43.4944" lon="1.10301">
        <ele>272</ele>
        <time>2020-01-15T17:19:19+01:00</time>
      </trkpt>
      <trkpt lat="43.49432" lon="1.10305">
        <ele>272</ele>
        <time>2020-01-15T17:19:27+01:00</time>
      </trkpt>
      <trkpt lat="43.49424" lon="1.10297">
        <ele>273</ele>
        <time>2020-01-15T17:19:35+01:00</time>
      </trkpt>
      <trkpt lat="43.49415" lon="1.10288">
        <ele>274</ele>
        <time>2020-01-15T17:19:43+01:00</time>
      </trkpt>
      <trkpt lat="43.49406" lon="1.10284">
        <ele>275</ele>
        <time>2020-01-15T17:19:51+01:00</time>
      </trkpt>
      <trkpt lat="43.49401" lon="1.10274">
        <ele>275</ele>
        <time>2020-01-15T17:19:58+01:00</time>
      </trkpt>
      <trkpt lat="43.49404" lon="1.10261">
        <ele>277</ele>
        <time>2020-01-15T17:20:06+01:00</time>
      </trkpt>
      <trkpt lat="43.49401" lon="1.10249">
        <ele>279</ele>
        <time>2020-01-15T17:20:13+01:00</time>
      </trkpt>
      <trkpt lat="43.49403" lon="1.10229">
        <ele>281</ele>
        <time>2020-01-15T17:20:25+01:00</time>
      </trkpt>
      <trkpt lat="43.49399" lon="1.10217">
        <ele>283</ele>
        <time>2020-01-15T17:20:33+01:00</time>
      </trkpt>
      <trkpt lat="43.49407" lon="1.10209">
        <ele>284</ele>
        <time>2020-01-15T17:20:41+01:00</time>
      </trkpt>
      <trkpt lat="43.49407" lon="1.10197">
        <ele>286</ele>
        <time>2020-01-15T17:20:48+01:00</time>
      </trkpt>
      <trkpt lat="43.49405" lon="1.10184">
        <ele>287</ele>
        <time>2020-01-15T17:20:56+01:00</time>
      </trkpt>
      <trkpt lat="43.49408" lon="1.10172">
        <ele>289</ele>
        <time>2020-01-15T17:21:03+01:00</time>
      </trkpt>
      <trkpt lat="43.49405" lon="1.10159">
        <ele>290</ele>
        <time>2020-01-15T17:21:11+01:00</time>
      </trkpt>
      <trkpt lat="43.49413" lon="1.10152">
        <ele>291</ele>
        <time>2020-01-15T17:21:19+01:00</time>
      </trkpt>
      <trkpt lat="43.49414" lon="1.1014">
        <ele>292</ele>
        <time>2020-01-15T17:21:26+01:00</time>
      </trkpt>
      <trkpt lat="43.49418" lon="1.10128">
        <ele>292</ele>
        <time>2020-01-15T17:21:33+01:00</time>
      </trkpt>
      <trkpt lat="43.49421" lon="1.10116">
        <ele>292</ele>
        <time>2020-01-15T17:21:41+01:00</time>
      </trkpt>
      <trkpt lat="43.4942" lon="1.10103">
        <ele>293</ele>
        <time>2020-01-15T17:21:49+01:00</time>
      </trkpt>
      <trkpt lat="43.49422" lon="1.10089">
        <ele>293</ele>
        <time>2020-01-15T17:21:57+01:00</time>
      </trkpt>
      <trkpt lat="43.49412" lon="1.10091">
        <ele>294</ele>
        <time>2020-01-15T17:22:05+01:00</time>
      </trkpt>
      <trkpt lat="43.49403" lon="1.10091">
        <ele>295</ele>
        <time>2020-01-15T17:22:12+01:00</time>
      </trkpt>
      <trkpt lat="43.49394" lon="1.10093">
        <ele>296</ele>
        <time>2020-01-15T17:22:20+01:00</time>
      </trkpt>
      <trkpt lat="43.49385" lon="1.10089">
        <ele>297</ele>
        <time>2020-01-15T17:22:27+01:00</time>
      </trkpt>
      <trkpt lat="43.49376" lon="1.1009">
        <ele>298</ele>
        <time>2020-01-15T17:22:35+01:00</time>
      </trkpt>
      <trkpt lat="43.49366" lon="1.10087">
        <ele>298</ele>
        <time>2020-01-15T17:22:42+01:00</time>
      </trkpt>
      <trkpt lat="43.49358" lon="1.1008">
        <ele>300</ele>
        <time>2020-01-15T17:22:51+01:00</time>
      </trkpt>
      <trkpt lat="43.4935" lon="1.10071">
        <ele>301</ele>
        <time>2020-01-15T17:22:58+01:00</time>
      </trkpt>
      <trkpt lat="43.49343" lon="1.10064">
        <ele>302</ele>
        <time>2020-01-15T17:23:06+01:00</time>
      </trkpt>
      <trkpt lat="43.49335" lon="1.10059">
        <ele>303</ele>
        <time>2020-01-15T17:23:13+01:00</time>
      </trkpt>
      <trkpt lat="43.49327" lon="1.10049">
        <ele>304</ele>
        <time>2020-01-15T17:23:21+01:00</time>
      </trkpt>
      <trkpt lat="43.49318" lon="1.10045">
        <ele>304</ele>
        <time>2020-01-15T17:23:29+01:00</time>
      </trkpt>
      <trkpt lat="43.49309" lon="1.10044">
        <ele>305</ele>
        <time>2020-01-15T17:23:36+01:00</time>
      </trkpt>
      <trkpt lat="43.49298" lon="1.10041">
        <ele>305</ele>
        <time>2020-01-15T17:23:45+01:00</time>
      </trkpt>
      <trkpt lat="43.49289" lon="1.10034">
        <ele>305</ele>
        <time>2020-01-15T17:23:53+01:00</time>
      </trkpt>
      <trkpt lat="43.49283" lon="1.10023">
        <ele>305</ele>
        <time>2020-01-15T17:24:01+01:00</time>
      </trkpt>
      <trkpt lat="43.49274" lon="1.10015">
        <ele>305</ele>
        <time>2020-01-15T17:24:10+01:00</time>
      </trkpt>
      <trkpt lat="43.49265" lon="1.10011">
        <ele>305</ele>
        <time>2020-01-15T17:24:17+01:00</time>
      </trkpt>
      <trkpt lat="43.49257" lon="1.10009">
        <ele>305</ele>
        <time>2020-01-15T17:24:24+01:00</time>
      </trkpt>
      <trkpt lat="43.49247" lon="1.10009">
        <ele>305</ele>
        <time>2020-01-15T17:24:32+01:00</time>
      </trkpt>
      <trkpt lat="43.49238" lon="1.10007">
        <ele>305</ele>
        <time>2020-01-15T17:24:39+01:00</time>
      </trkpt>
      <trkpt lat="43.49228" lon="1.1001">
        <ele>305</ele>
        <time>2020-01-15T17:24:47+01:00</time>
      </trkpt>
      <trkpt lat="43.49219" lon="1.10013">
        <ele>305</ele>
        <time>2020-01-15T17:24:55+01:00</time>
      </trkpt>
      <trkpt lat="43.49209" lon="1.10014">
        <ele>305</ele>
        <time>2020-01-15T17:25:03+01:00</time>
      </trkpt>
      <trkpt lat="43.49199" lon="1.10014">
        <ele>305</ele>
        <time>2020-01-15T17:25:11+01:00</time>
      </trkpt>
      <trkpt lat="43.49189" lon="1.10014">
        <ele>305</ele>
        <time>2020-01-15T17:25:18+01:00</time>
      </trkpt>
      <trkpt lat="43.4918" lon="1.10015">
        <ele>305</ele>
        <time>2020-01-15T17:25:26+01:00</time>
      </trkpt>
      <trkpt lat="43.49169" lon="1.10014">
        <ele>305</ele>
        <time>2020-01-15T17:25:35+01:00</time>
      </trkpt>
      <trkpt lat="43.4916" lon="1.10013">
        <ele>305</ele>
        <time>2020-01-15T17:25:42+01:00</time>
      </trkpt>
      <trkpt lat="43.49156" lon="1.10002">
        <ele>305</ele>
        <time>2020-01-15T17:25:50+01:00</time>
      </trkpt>
      <trkpt lat="43.49158" lon="1.09989">
        <ele>305</ele>
        <time>2020-01-15T17:25:57+01:00</time>
      </trkpt>
      <trkpt lat="43.49161" lon="1.09977">
        <ele>305</ele>
        <time>2020-01-15T17:26:04+01:00</time>
      </trkpt>
      <trkpt lat="43.49162" lon="1.09964">
        <ele>305</ele>
        <time>2020-01-15T17:26:12+01:00</time>
      </trkpt>
      <trkpt lat="43.49158" lon="1.09951">
        <ele>305</ele>
        <time>2020-01-15T17:26:20+01:00</time>
      </trkpt>
      <trkpt lat="43.49156" lon="1.09939">
        <ele>305</ele>
        <time>2020-01-15T17:26:28+01:00</time>
      </trkpt>
      <trkpt lat="43.49156" lon="1.09926">
        <ele>305</ele>
        <time>2020-01-15T17:26:35+01:00</time>
      </trkpt>
      <trkpt lat="43.49157" lon="1.09913">
        <ele>305</ele>
        <time>2020-01-15T17:26:43+01:00</time>
      </trkpt>
      <trkpt lat="43.49154" lon="1.09901">
        <ele>304</ele>
        <time>2020-01-15T17:26:50+01:00</time>
      </trkpt>
      <trkpt lat="43.49155" lon="1.09889">
        <ele>303</ele>
        <time>2020-01-15T17:26:58+01:00</time>
      </trkpt>
      <trkpt lat="43.49157" lon="1.09876">
        <ele>302</ele>
        <time>2020-01-15T17:27:05+01:00</time>
      </trkpt>
      <trkpt lat="43.49156" lon="1.09863">
        <ele>302</ele>
        <time>2020-01-15T17:27:13+01:00</time>
      </trkpt>
      <trkpt lat="43.49166" lon="1.09866">
        <ele>301</ele>
        <time>2020-01-15T17:27:20+01:00</time>
      </trkpt>
      <trkpt lat="43.49175" lon="1.09871">
        <ele>302</ele>
        <time>2020-01-15T17:27:28+01:00</time>
      </trkpt>
      <trkpt lat="43.49184" lon="1.09871">
        <ele>302</ele>
        <time>2020-01-15T17:27:35+01:00</time>
      </trkpt>
      <trkpt lat="43.49193" lon="1.09873">
        <ele>302</ele>
        <time>2020-01-15T17:27:43+01:00</time>
      </trkpt>
      <trkpt lat="43.49204" lon="1.09875">
        <ele>303</ele>
        <time>2020-01-15T17:27:52+01:00</time>
      </trkpt>
      <trkpt lat="43.49214" lon="1.0988">
        <ele>303</ele>
        <time>2020-01-15T17:28:00+01:00</time>
      </trkpt>
      <trkpt lat="43.49224" lon="1.09882">
        <ele>304</ele>
        <time>2020-01-15T17:28:08+01:00</time>
      </trkpt>
      <trkpt lat="43.49234" lon="1.09883">
        <ele>304</ele>
        <time>2020-01-15T17:28:16+01:00</time>
      </trkpt>
      <trkpt lat="43.49244" lon="1.09878">
        <ele>304</ele>
        <time>2020-01-15T17:28:25+01:00</time>
      </trkpt>
      <trkpt lat="43.49253" lon="1.09878">
        <ele>304</ele>
        <time>2020-01-15T17:28:32+01:00</time>
      </trkpt>
      <trkpt lat="43.49263" lon="1.09882">
        <ele>304</ele>
        <time>2020-01-15T17:28:40+01:00</time>
      </trkpt>
      <trkpt lat="43.49272" lon="1.09885">
        <ele>305</ele>
        <time>2020-01-15T17:28:48+01:00</time>
      </trkpt>
      <trkpt lat="43.49282" lon="1.09878">
        <ele>304</ele>
        <time>2020-01-15T17:28:57+01:00</time>
      </trkpt>
      <trkpt lat="43.4929" lon="1.09869">
        <ele>302</ele>
        <time>2020-01-15T17:29:05+01:00</time>
      </trkpt>
      <trkpt lat="43.49296" lon="1.09858">
        <ele>301</ele>
        <time>2020-01-15T17:29:13+01:00</time>
      </trkpt>
      <trkpt lat="43.49302" lon="1.09847">
        <ele>300</ele>
        <time>2020-01-15T17:29:21+01:00</time>
      </trkpt>
      <trkpt lat="43.49306" lon="1.09834">
        <ele>299</ele>
        <time>2020-01-15T17:29:29+01:00</time>
      </trkpt>
      <trkpt lat="43.49308" lon="1.09822">
        <ele>298</ele>
        <time>2020-01-15T17:29:37+01:00</time>
      </trkpt>
      <trkpt lat="43.4931" lon="1.0981">
        <ele>296</ele>
        <time>2020-01-15T17:29:44+01:00</time>
      </trkpt>
      <trkpt lat="43.49316" lon="1.098">
        <ele>295</ele>
        <time>2020-01-15T17:29:51+01:00</time>
      </trkpt>
      <trkpt lat="43.49322" lon="1.0979">
        <ele>294</ele>
        <time>2020-01-15T17:29:59+01:00</time>
      </trkpt>
      <trkpt lat="43.49327" lon="1.09779">
        <ele>293</ele>
        <time>2020-01-15T17:30:07+01:00</time>
      </trkpt>
      <trkpt lat="43.49332" lon="1.09769">
        <ele>292</ele>
        <time>2020-01-15T17:30:14+01:00</time>
      </trkpt>
      <trkpt lat="43.49339" lon="1.0976">
        <ele>291</ele>
        <time>2020-01-15T17:30:22+01:00</time>
      </trkpt>
      <trkpt lat="43.49345" lon="1.09747">
        <ele>290</ele>
        <time>2020-01-15T17:30:30+01:00</time>
      </trkpt>
      <trkpt lat="43.49351" lon="1.09737">
        <ele>289</ele>
        <time>2020-01-15T17:30:38+01:00</time>
      </trkpt>
      <trkpt lat="43.49357" lon="1.09726">
        <ele>288</ele>
        <time>2020-01-15T17:30:46+01:00</time>
      </trkpt>
      <trkpt lat="43.4936" lon="1.09713">
        <ele>286</ele>
        <time>2020-01-15T17:30:54+01:00</time>
      </trkpt>
      <trkpt lat="43.49363" lon="1.09699">
        <ele>284</ele>
        <time>2020-01-15T17:31:02+01:00</time>
      </trkpt>
      <trkpt lat="43.49369" lon="1.09687">
        <ele>283</ele>
        <time>2020-01-15T17:31:11+01:00</time>
      </trkpt>
      <trkpt lat="43.49375" lon="1.09677">
        <ele>281</ele>
        <time>2020-01-15T17:31:18+01:00</time>
      </trkpt>
      <trkpt lat="43.49376" lon="1.09664">
        <ele>280</ele>
        <time>2020-01-15T17:31:26+01:00</time>
      </trkpt>
      <trkpt lat="43.49378" lon="1.09651">
        <ele>281</ele>
        <time>2020-01-15T17:31:34+01:00</time>
      </trkpt>
      <trkpt lat="43.49381" lon="1.09638">
        <ele>282</ele>
        <time>2020-01-15T17:31:42+01:00</time>
      </trkpt>
      <trkpt lat="43.49381" lon="1.09625">
        <ele>283</ele>
        <time>2020-01-15T17:31:50+01:00</time>
      </trkpt>
      <trkpt lat="43.49382" lon="1.0961">
        <ele>284</ele>
        <time>2020-01-15T17:31:58+01:00</time>
      </trkpt>
      <trkpt lat="43.49383" lon="1.09597">
        <ele>285</ele>
        <time>2020-01-15T17:32:06+01:00</time>
      </trkpt>
      <trkpt lat="43.49384" lon="1.09584">
        <ele>285</ele>
        <time>2020-01-15T17:32:13+01:00</time>
      </trkpt>
      <trkpt lat="43.49389" lon="1.09574">
        <ele>285</ele>
        <time>2020-01-15T17:32:21+01:00</time>
      </trkpt>
      <trkpt lat="43.4939" lon="1.09561">
        <ele>286</ele>
        <time>2020-01-15T17:32:28+01:00</time>
      </trkpt>
      <trkpt lat="43.49391" lon="1.09548">
        <ele>287</ele>
        <time>2020-01-15T17:32:36+01:00</time>
      </trkpt>
      <trkpt lat="43.49393" lon="1.09535">
        <ele>288</ele>
        <time>2020-01-15T17:32:43+01:00</time>
      </trkpt>
      <trkpt lat="43.49391" lon="1.09523">
        <ele>289</ele>
        <time>2020-01-15T17:32:51+01:00</time>
      </trkpt>
      <trkpt lat="43.49388" lon="1.0951">
        <ele>290</ele>
        <time>2020-01-15T17:32:59+01:00</time>
      </trkpt>
      <trkpt lat="43.49385" lon="1.09498">
        <ele>292</ele>
        <time>2020-01-15T17:33:06+01:00</time>
      </trkpt>
      <trkpt lat="43.49383" lon="1.09485">
        <ele>293</ele>
        <time>2020-01-15T17:33:14+01:00</time>
      </trkpt>
      <trkpt lat="43.49379" lon="1.09472">
        <ele>294</ele>
        <time>2020-01-15T17:33:22+01:00</time>
      </trkpt>
      <trkpt lat="43.49377" lon="1.09459">
        <ele>295</ele>
        <time>2020-01-15T17:33:30+01:00</time>
      </trkpt>
      <trkpt lat="43.49377" lon="1.09446">
        <ele>296</ele>
        <time>2020-01-15T17:33:37+01:00</time>
      </trkpt>
      <trkpt lat="43.49375" lon="1.09432">
        <ele>297</ele>
        <time>2020-01-15T17:33:46+01:00</time>
      </trkpt>
      <trkpt lat="43.49372" lon="1.09419">
        <ele>298</ele>
        <time>2020-01-15T17:33:54+01:00</time>
      </trkpt>
      <trkpt lat="43.49369" lon="1.09406">
        <ele>298</ele>
        <time>2020-01-15T17:34:02+01:00</time>
      </trkpt>
      <trkpt lat="43.49369" lon="1.09394">
        <ele>299</ele>
        <time>2020-01-15T17:34:09+01:00</time>
      </trkpt>
      <trkpt lat="43.49366" lon="1.0938">
        <ele>300</ele>
        <time>2020-01-15T17:34:17+01:00</time>
      </trkpt>
      <trkpt lat="43.49368" lon="1.09367">
        <ele>301</ele>
        <time>2020-01-15T17:34:25+01:00</time>
      </trkpt>
      <trkpt lat="43.4937" lon="1.09353">
        <ele>303</ele>
        <time>2020-01-15T17:34:33+01:00</time>
      </trkpt>
      <trkpt lat="43.49369" lon="1.0934">
        <ele>304</ele>
        <time>2020-01-15T17:34:41+01:00</time>
      </trkpt>
      <trkpt lat="43.49367" lon="1.09327">
        <ele>305</ele>
        <time>2020-01-15T17:34:49+01:00</time>
      </trkpt>
      <trkpt lat="43.49366" lon="1.09313">
        <ele>306</ele>
        <time>2020-01-15T17:34:57+01:00</time>
      </trkpt>
      <trkpt lat="43.49362" lon="1.09302">
        <ele>306</ele>
        <time>2020-01-15T17:35:04+01:00</time>
      </trkpt>
      <trkpt lat="43.49356" lon="1.0929">
        <ele>307</ele>
        <time>2020-01-15T17:35:12+01:00</time>
      </trkpt>
      <trkpt lat="43.49347" lon="1.09285">
        <ele>307</ele>
        <time>2020-01-15T17:35:20+01:00</time>
      </trkpt>
      <trkpt lat="43.4934" lon="1.09277">
        <ele>307</ele>
        <time>2020-01-15T17:35:28+01:00</time>
      </trkpt>
      <trkpt lat="43.49337" lon="1.09265">
        <ele>308</ele>
        <time>2020-01-15T17:35:35+01:00</time>
      </trkpt>
      <trkpt lat="43.49335" lon="1.09252">
        <ele>309</ele>
        <time>2020-01-15T17:35:43+01:00</time>
      </trkpt>
      <trkpt lat="43.49338" lon="1.09239">
        <ele>310</ele>
        <time>2020-01-15T17:35:51+01:00</time>
      </trkpt>
      <trkpt lat="43.49337" lon="1.09225">
        <ele>310</ele>
        <time>2020-01-15T17:35:59+01:00</time>
      </trkpt>
      <trkpt lat="43.49337" lon="1.09212">
        <ele>310</ele>
        <time>2020-01-15T17:36:07+01:00</time>
      </trkpt>
      <trkpt lat="43.49339" lon="1.09198">
        <ele>310</ele>
        <time>2020-01-15T17:36:15+01:00</time>
      </trkpt>
      <trkpt lat="43.49339" lon="1.09185">
        <ele>310</ele>
        <time>2020-01-15T17:36:22+01:00</time>
      </trkpt>
      <trkpt lat="43.49339" lon="1.09172">
        <ele>310</ele>
        <time>2020-01-15T17:36:30+01:00</time>
      </trkpt>
      <trkpt lat="43.49341" lon="1.0916">
        <ele>310</ele>
        <time>2020-01-15T17:36:37+01:00</time>
      </trkpt>
      <trkpt lat="43.49336" lon="1.09147">
        <ele>310</ele>
        <time>2020-01-15T17:36:46+01:00</time>
      </trkpt>
      <trkpt lat="43.49337" lon="1.09134">
        <ele>310</ele>
        <time>2020-01-15T17:36:53+01:00</time>
      </trkpt>
      <trkpt lat="43.49339" lon="1.09122">
        <ele>310</ele>
        <time>2020-01-15T17:37:01+01:00</time>
      </trkpt>
      <trkpt lat="43.49344" lon="1.09109">
        <ele>310</ele>
        <time>2020-01-15T17:37:09+01:00</time>
      </trkpt>
      <trkpt lat="43.49348" lon="1.09097">
        <ele>308</ele>
        <time>2020-01-15T17:37:17+01:00</time>
      </trkpt>
      <trkpt lat="43.49352" lon="1.09086">
        <ele>307</ele>
        <time>2020-01-15T17:37:24+01:00</time>
      </trkpt>
      <trkpt lat="43.49359" lon="1.09076">
        <ele>305</ele>
        <time>2020-01-15T17:37:32+01:00</time>
      </trkpt>
      <trkpt lat="43.49366" lon="1.09069">
        <ele>304</ele>
        <time>2020-01-15T17:37:39+01:00</time>
      </trkpt>
      <trkpt lat="43.49374" lon="1.09063">
        <ele>302</ele>
        <time>2020-01-15T17:37:47+01:00</time>
      </trkpt>
      <trkpt lat="43.49381" lon="1.09054">
        <ele>300</ele>
        <time>2020-01-15T17:37:54+01:00</time>
      </trkpt>
      <trkpt lat="43.49387" lon="1.09043">
        <ele>298</ele>
        <time>2020-01-15T17:38:02+01:00</time>
      </trkpt>
      <trkpt lat="43.49392" lon="1.09033">
        <ele>296</ele>
        <time>2020-01-15T17:38:09+01:00</time>
      </trkpt>
      <trkpt lat="43.49394" lon="1.09021">
        <ele>294</ele>
        <time>2020-01-15T17:38:16+01:00</time>
      </trkpt>
      <trkpt lat="43.49397" lon="1.09009">
        <ele>292</ele>
        <time>2020-01-15T17:38:24+01:00</time>
      </trkpt>
      <trkpt lat="43.49403" lon="1.09">
        <ele>290</ele>
        <time>2020-01-15T17:38:31+01:00</time>
      </trkpt>
      <trkpt lat="43.49404" lon="1.08987">
        <ele>289</ele>
        <time>2020-01-15T17:38:39+01:00</time>
      </trkpt>
      <trkpt lat="43.4941" lon="1.08977">
        <ele>287</ele>
        <time>2020-01-15T17:38:46+01:00</time>
      </trkpt>
      <trkpt lat="43.49419" lon="1.08976">
        <ele>286</ele>
        <time>2020-01-15T17:38:54+01:00</time>
      </trkpt>
      <trkpt lat="43.49426" lon="1.08966">
        <ele>285</ele>
        <time>2020-01-15T17:39:02+01:00</time>
      </trkpt>
      <trkpt lat="43.49436" lon="1.08962">
        <ele>284</ele>
        <time>2020-01-15T17:39:10+01:00</time>
      </trkpt>
      <trkpt lat="43.49444" lon="1.08957">
        <ele>283</ele>
        <time>2020-01-15T17:39:17+01:00</time>
      </trkpt>
      <trkpt lat="43.49437" lon="1.08948">
        <ele>283</ele>
        <time>2020-01-15T17:39:25+01:00</time>
      </trkpt>
      <trkpt lat="43.49437" lon="1.08936">
        <ele>282</ele>
        <time>2020-01-15T17:39:32+01:00</time>
      </trkpt>
      <trkpt lat="43.49438" lon="1.08922">
        <ele>281</ele>
        <time>2020-01-15T17:39:40+01:00</time>
      </trkpt>
      <trkpt lat="43.49431" lon="1.08911">
        <ele>280</ele>
        <time>2020-01-15T17:39:48+01:00</time>
      </trkpt>
      <trkpt lat="43.49436" lon="1.089">
        <ele>279</ele>
        <time>2020-01-15T17:39:56+01:00</time>
      </trkpt>
      <trkpt lat="43.49443" lon="1.08891">
        <ele>278</ele>
        <time>2020-01-15T17:40:04+01:00</time>
      </trkpt>
      <trkpt lat="43.49447" lon="1.08878">
        <ele>277</ele>
        <time>2020-01-15T17:40:12+01:00</time>
      </trkpt>
      <trkpt lat="43.49448" lon="1.08864">
        <ele>277</ele>
        <time>2020-01-15T17:40:21+01:00</time>
      </trkpt>
      <trkpt lat="43.4945" lon="1.08852">
        <ele>276</ele>
        <time>2020-01-15T17:40:28+01:00</time>
      </trkpt>
      <trkpt lat="43.49453" lon="1.08839">
        <ele>275</ele>
        <time>2020-01-15T17:40:36+01:00</time>
      </trkpt>
      <trkpt lat="43.49454" lon="1.08826">
        <ele>275</ele>
        <time>2020-01-15T17:40:44+01:00</time>
      </trkpt>
      <trkpt lat="43.49462" lon="1.08821">
        <ele>275</ele>
        <time>2020-01-15T17:40:51+01:00</time>
      </trkpt>
      <trkpt lat="43.49471" lon="1.08817">
        <ele>275</ele>
        <time>2020-01-15T17:40:59+01:00</time>
      </trkpt>
      <trkpt lat="43.49481" lon="1.08819">
        <ele>274</ele>
        <time>2020-01-15T17:41:07+01:00</time>
      </trkpt>
      <trkpt lat="43.4949" lon="1.08818">
        <ele>274</ele>
        <time>2020-01-15T17:41:14+01:00</time>
      </trkpt>
      <trkpt lat="43.49497" lon="1.08808">
        <ele>273</ele>
        <time>2020-01-15T17:41:21+01:00</time>
      </trkpt>
      <trkpt lat="43.49506" lon="1.08811">
        <ele>273</ele>
        <time>2020-01-15T17:41:29+01:00</time>
      </trkpt>
      <trkpt lat="43.49515" lon="1.08815">
        <ele>272</ele>
        <time>2020-01-15T17:41:37+01:00</time>
      </trkpt>
      <trkpt lat="43.49518" lon="1.08777">
        <ele>273</ele>
        <time>2020-01-15T17:41:59+01:00</time>
      </trkpt>
      <trkpt lat="43.49525" lon="1.08755">
        <ele>274</ele>
        <time>2020-01-15T17:42:13+01:00</time>
      </trkpt>
      <trkpt lat="43.49537" lon="1.08609">
        <ele>285</ele>
        <time>2020-01-15T17:43:38+01:00</time>
      </trkpt>
      <trkpt lat="43.49549" lon="1.08481">
        <ele>294</ele>
        <time>2020-01-15T17:44:53+01:00</time>
      </trkpt>
      <trkpt lat="43.4956" lon="1.08387">
        <ele>300</ele>
        <time>2020-01-15T17:45:49+01:00</time>
      </trkpt>
      <trkpt lat="43.49573" lon="1.08255">
        <ele>306</ele>
        <time>2020-01-15T17:47:06+01:00</time>
      </trkpt>
      <trkpt lat="43.49574" lon="1.08242">
        <ele>306</ele>
        <time>2020-01-15T17:47:14+01:00</time>
      </trkpt>
      <trkpt lat="43.49667" lon="1.0824">
        <ele>305</ele>
        <time>2020-01-15T17:48:29+01:00</time>
      </trkpt>
      <trkpt lat="43.49755" lon="1.08252">
        <ele>311</ele>
        <time>2020-01-15T17:49:39+01:00</time>
      </trkpt>
      <trkpt lat="43.4978" lon="1.08316">
        <ele>312</ele>
        <time>2020-01-15T17:50:21+01:00</time>
      </trkpt>
      <trkpt lat="43.49822" lon="1.08483">
        <ele>311</ele>
        <time>2020-01-15T17:52:04+01:00</time>
      </trkpt>
      <trkpt lat="43.49856" lon="1.08602">
        <ele>310</ele>
        <time>2020-01-15T17:53:18+01:00</time>
      </trkpt>
      <trkpt lat="43.49876" lon="1.08589">
        <ele>310</ele>
        <time>2020-01-15T17:53:36+01:00</time>
      </trkpt>
      <trkpt lat="43.49896" lon="1.08557">
        <ele>308</ele>
        <time>2020-01-15T17:54:01+01:00</time>
      </trkpt>
      <trkpt lat="43.49964" lon="1.08528">
        <ele>298</ele>
        <time>2020-01-15T17:54:57+01:00</time>
      </trkpt>
      <trkpt lat="43.49973" lon="1.0853">
        <ele>297</ele>
        <time>2020-01-15T17:55:05+01:00</time>
      </trkpt>
      <trkpt lat="43.49982" lon="1.08527">
        <ele>296</ele>
        <time>2020-01-15T17:55:12+01:00</time>
      </trkpt>
      <trkpt lat="43.49991" lon="1.08524">
        <ele>296</ele>
        <time>2020-01-15T17:55:20+01:00</time>
      </trkpt>
      <trkpt lat="43.50001" lon="1.08524">
        <ele>295</ele>
        <time>2020-01-15T17:55:28+01:00</time>
      </trkpt>
      <trkpt lat="43.50011" lon="1.08527">
        <ele>294</ele>
        <time>2020-01-15T17:55:36+01:00</time>
      </trkpt>
      <trkpt lat="43.50021" lon="1.08528">
        <ele>293</ele>
        <time>2020-01-15T17:55:44+01:00</time>
      </trkpt>
      <trkpt lat="43.5003" lon="1.08532">
        <ele>293</ele>
        <time>2020-01-15T17:55:52+01:00</time>
      </trkpt>
      <trkpt lat="43.5004" lon="1.08534">
        <ele>292</ele>
        <time>2020-01-15T17:56:00+01:00</time>
      </trkpt>
      <trkpt lat="43.5005" lon="1.08535">
        <ele>292</ele>
        <time>2020-01-15T17:56:08+01:00</time>
      </trkpt>
      <trkpt lat="43.5006" lon="1.08538">
        <ele>292</ele>
        <time>2020-01-15T17:56:16+01:00</time>
      </trkpt>
      <trkpt lat="43.5007" lon="1.08541">
        <ele>291</ele>
        <time>2020-01-15T17:56:24+01:00</time>
      </trkpt>
      <trkpt lat="43.50079" lon="1.08543">
        <ele>291</ele>
        <time>2020-01-15T17:56:32+01:00</time>
      </trkpt>
      <trkpt lat="43.50088" lon="1.08542">
        <ele>290</ele>
        <time>2020-01-15T17:56:39+01:00</time>
      </trkpt>
      <trkpt lat="43.50098" lon="1.08542">
        <ele>290</ele>
        <time>2020-01-15T17:56:47+01:00</time>
      </trkpt>
      <trkpt lat="43.50107" lon="1.08544">
        <ele>289</ele>
        <time>2020-01-15T17:56:55+01:00</time>
      </trkpt>
      <trkpt lat="43.50117" lon="1.08542">
        <ele>289</ele>
        <time>2020-01-15T17:57:03+01:00</time>
      </trkpt>
      <trkpt lat="43.50126" lon="1.0854">
        <ele>289</ele>
        <time>2020-01-15T17:57:10+01:00</time>
      </trkpt>
      <trkpt lat="43.50137" lon="1.08537">
        <ele>289</ele>
        <time>2020-01-15T17:57:19+01:00</time>
      </trkpt>
      <trkpt lat="43.50146" lon="1.08531">
        <ele>289</ele>
        <time>2020-01-15T17:57:27+01:00</time>
      </trkpt>
      <trkpt lat="43.50155" lon="1.0853">
        <ele>289</ele>
        <time>2020-01-15T17:57:34+01:00</time>
      </trkpt>
      <trkpt lat="43.50164" lon="1.08526">
        <ele>288</ele>
        <time>2020-01-15T17:57:42+01:00</time>
      </trkpt>
      <trkpt lat="43.50173" lon="1.08523">
        <ele>288</ele>
        <time>2020-01-15T17:57:49+01:00</time>
      </trkpt>
      <trkpt lat="43.50183" lon="1.08518">
        <ele>287</ele>
        <time>2020-01-15T17:57:58+01:00</time>
      </trkpt>
      <trkpt lat="43.50193" lon="1.08513">
        <ele>286</ele>
        <time>2020-01-15T17:58:06+01:00</time>
      </trkpt>
      <trkpt lat="43.50202" lon="1.08511">
        <ele>285</ele>
        <time>2020-01-15T17:58:14+01:00</time>
      </trkpt>
      <trkpt lat="43.50213" lon="1.08508">
        <ele>284</ele>
        <time>2020-01-15T17:58:23+01:00</time>
      </trkpt>
      <trkpt lat="43.50222" lon="1.08507">
        <ele>283</ele>
        <time>2020-01-15T17:58:30+01:00</time>
      </trkpt>
      <trkpt lat="43.50232" lon="1.08506">
        <ele>282</ele>
        <time>2020-01-15T17:58:38+01:00</time>
      </trkpt>
      <trkpt lat="43.50241" lon="1.08509">
        <ele>281</ele>
        <time>2020-01-15T17:58:45+01:00</time>
      </trkpt>
      <trkpt lat="43.50251" lon="1.08511">
        <ele>279</ele>
        <time>2020-01-15T17:58:54+01:00</time>
      </trkpt>
      <trkpt lat="43.50261" lon="1.08513">
        <ele>278</ele>
        <time>2020-01-15T17:59:02+01:00</time>
      </trkpt>
      <trkpt lat="43.50265" lon="1.08509">
        <ele>278</ele>
        <time>2020-01-15T17:59:06+01:00</time>
      </trkpt>
      <trkpt lat="43.50264" lon="1.08496">
        <ele>278</ele>
        <time>2020-01-15T17:59:14+01:00</time>
      </trkpt>
      <trkpt lat="43.50263" lon="1.08485">
        <ele>279</ele>
        <time>2020-01-15T17:59:20+01:00</time>
      </trkpt>
      <trkpt lat="43.50263" lon="1.08435">
        <ele>280</ele>
        <time>2020-01-15T17:59:49+01:00</time>
      </trkpt>
      <trkpt lat="43.50262" lon="1.08411">
        <ele>280</ele>
        <time>2020-01-15T18:00:03+01:00</time>
      </trkpt>
      <trkpt lat="43.50261" lon="1.08392">
        <ele>280</ele>
        <time>2020-01-15T18:00:14+01:00</time>
      </trkpt>
      <trkpt lat="43.50261" lon="1.08362">
        <ele>280</ele>
        <time>2020-01-15T18:00:32+01:00</time>
      </trkpt>
      <trkpt lat="43.50265" lon="1.08344">
        <ele>280</ele>
        <time>2020-01-15T18:00:42+01:00</time>
      </trkpt>
      <trkpt lat="43.5027" lon="1.08311">
        <ele>280</ele>
        <time>2020-01-15T18:01:02+01:00</time>
      </trkpt>
      <trkpt lat="43.50273" lon="1.08294">
        <ele>280</ele>
        <time>2020-01-15T18:01:12+01:00</time>
      </trkpt>
      <trkpt lat="43.50278" lon="1.08288">
        <ele>280</ele>
        <time>2020-01-15T18:01:18+01:00</time>
      </trkpt>
      <trkpt lat="43.50287" lon="1.08286">
        <ele>279</ele>
        <time>2020-01-15T18:01:25+01:00</time>
      </trkpt>
      <trkpt lat="43.50307" lon="1.08284">
        <ele>277</ele>
        <time>2020-01-15T18:01:41+01:00</time>
      </trkpt>
      <trkpt lat="43.50327" lon="1.08283">
        <ele>275</ele>
        <time>2020-01-15T18:01:57+01:00</time>
      </trkpt>
      <trkpt lat="43.50337" lon="1.08282">
        <ele>275</ele>
        <time>2020-01-15T18:02:05+01:00</time>
      </trkpt>
      <trkpt lat="43.50346" lon="1.0828">
        <ele>274</ele>
        <time>2020-01-15T18:02:13+01:00</time>
      </trkpt>
      <trkpt lat="43.50356" lon="1.0828">
        <ele>273</ele>
        <time>2020-01-15T18:02:21+01:00</time>
      </trkpt>
      <trkpt lat="43.50367" lon="1.08276">
        <ele>273</ele>
        <time>2020-01-15T18:02:30+01:00</time>
      </trkpt>
      <trkpt lat="43.50378" lon="1.08276">
        <ele>272</ele>
        <time>2020-01-15T18:02:38+01:00</time>
      </trkpt>
      <trkpt lat="43.50388" lon="1.08274">
        <ele>271</ele>
        <time>2020-01-15T18:02:46+01:00</time>
      </trkpt>
      <trkpt lat="43.50397" lon="1.08272">
        <ele>270</ele>
        <time>2020-01-15T18:02:54+01:00</time>
      </trkpt>
      <trkpt lat="43.50406" lon="1.08271">
        <ele>270</ele>
        <time>2020-01-15T18:03:02+01:00</time>
      </trkpt>
      <trkpt lat="43.50417" lon="1.08271">
        <ele>269</ele>
        <time>2020-01-15T18:03:10+01:00</time>
      </trkpt>
      <trkpt lat="43.50426" lon="1.08269">
        <ele>268</ele>
        <time>2020-01-15T18:03:17+01:00</time>
      </trkpt>
      <trkpt lat="43.50435" lon="1.08268">
        <ele>268</ele>
        <time>2020-01-15T18:03:25+01:00</time>
      </trkpt>
      <trkpt lat="43.50445" lon="1.08266">
        <ele>267</ele>
        <time>2020-01-15T18:03:33+01:00</time>
      </trkpt>
      <trkpt lat="43.50454" lon="1.08267">
        <ele>267</ele>
        <time>2020-01-15T18:03:40+01:00</time>
      </trkpt>
      <trkpt lat="43.50464" lon="1.08265">
        <ele>266</ele>
        <time>2020-01-15T18:03:48+01:00</time>
      </trkpt>
      <trkpt lat="43.50474" lon="1.08263">
        <ele>266</ele>
        <time>2020-01-15T18:03:56+01:00</time>
      </trkpt>
      <trkpt lat="43.50484" lon="1.08261">
        <ele>266</ele>
        <time>2020-01-15T18:04:04+01:00</time>
      </trkpt>
      <trkpt lat="43.50493" lon="1.08261">
        <ele>265</ele>
        <time>2020-01-15T18:04:11+01:00</time>
      </trkpt>
      <trkpt lat="43.50502" lon="1.0826">
        <ele>265</ele>
        <time>2020-01-15T18:04:19+01:00</time>
      </trkpt>
      <trkpt lat="43.50513" lon="1.08259">
        <ele>265</ele>
        <time>2020-01-15T18:04:27+01:00</time>
      </trkpt>
      <trkpt lat="43.50523" lon="1.08257">
        <ele>264</ele>
        <time>2020-01-15T18:04:35+01:00</time>
      </trkpt>
      <trkpt lat="43.50542" lon="1.08253">
        <ele>264</ele>
        <time>2020-01-15T18:04:51+01:00</time>
      </trkpt>
      <trkpt lat="43.50561" lon="1.08245">
        <ele>265</ele>
        <time>2020-01-15T18:05:06+01:00</time>
      </trkpt>
      <trkpt lat="43.50587" lon="1.0823">
        <ele>266</ele>
        <time>2020-01-15T18:05:30+01:00</time>
      </trkpt>
      <trkpt lat="43.50615" lon="1.08219">
        <ele>266</ele>
        <time>2020-01-15T18:05:52+01:00</time>
      </trkpt>
      <trkpt lat="43.50625" lon="1.08216">
        <ele>267</ele>
        <time>2020-01-15T18:06:01+01:00</time>
      </trkpt>
      <trkpt lat="43.50634" lon="1.08211">
        <ele>267</ele>
        <time>2020-01-15T18:06:09+01:00</time>
      </trkpt>
      <trkpt lat="43.50664" lon="1.08201">
        <ele>268</ele>
        <time>2020-01-15T18:06:33+01:00</time>
      </trkpt>
      <trkpt lat="43.50665" lon="1.08218">
        <ele>269</ele>
        <time>2020-01-15T18:06:43+01:00</time>
      </trkpt>
      <trkpt lat="43.50663" lon="1.08231">
        <ele>269</ele>
        <time>2020-01-15T18:06:51+01:00</time>
      </trkpt>
      <trkpt lat="43.50661" lon="1.08243">
        <ele>269</ele>
        <time>2020-01-15T18:06:58+01:00</time>
      </trkpt>
      <trkpt lat="43.50661" lon="1.08256">
        <ele>269</ele>
        <time>2020-01-15T18:07:05+01:00</time>
      </trkpt>
      <trkpt lat="43.5066" lon="1.08268">
        <ele>269</ele>
        <time>2020-01-15T18:07:13+01:00</time>
      </trkpt>
      <trkpt lat="43.50659" lon="1.08282">
        <ele>269</ele>
        <time>2020-01-15T18:07:21+01:00</time>
      </trkpt>
      <trkpt lat="43.50656" lon="1.08295">
        <ele>269</ele>
        <time>2020-01-15T18:07:29+01:00</time>
      </trkpt>
      <trkpt lat="43.50655" lon="1.08308">
        <ele>269</ele>
        <time>2020-01-15T18:07:36+01:00</time>
      </trkpt>
      <trkpt lat="43.50652" lon="1.08321">
        <ele>269</ele>
        <time>2020-01-15T18:07:44+01:00</time>
      </trkpt>
      <trkpt lat="43.50649" lon="1.08334">
        <ele>269</ele>
        <time>2020-01-15T18:07:52+01:00</time>
      </trkpt>
      <trkpt lat="43.50646" lon="1.08347">
        <ele>269</ele>
        <time>2020-01-15T18:08:00+01:00</time>
      </trkpt>
      <trkpt lat="43.50644" lon="1.0836">
        <ele>268</ele>
        <time>2020-01-15T18:08:08+01:00</time>
      </trkpt>
      <trkpt lat="43.50642" lon="1.08372">
        <ele>268</ele>
        <time>2020-01-15T18:08:15+01:00</time>
      </trkpt>
      <trkpt lat="43.50642" lon="1.08386">
        <ele>268</ele>
        <time>2020-01-15T18:08:23+01:00</time>
      </trkpt>
      <trkpt lat="43.5064" lon="1.08399">
        <ele>268</ele>
        <time>2020-01-15T18:08:31+01:00</time>
      </trkpt>
      <trkpt lat="43.5064" lon="1.08412">
        <ele>268</ele>
        <time>2020-01-15T18:08:39+01:00</time>
      </trkpt>
      <trkpt lat="43.50638" lon="1.08426">
        <ele>268</ele>
        <time>2020-01-15T18:08:47+01:00</time>
      </trkpt>
      <trkpt lat="43.50637" lon="1.08439">
        <ele>269</ele>
        <time>2020-01-15T18:08:54+01:00</time>
      </trkpt>
      <trkpt lat="43.50635" lon="1.08453">
        <ele>269</ele>
        <time>2020-01-15T18:09:02+01:00</time>
      </trkpt>
      <trkpt lat="43.50633" lon="1.08465">
        <ele>269</ele>
        <time>2020-01-15T18:09:10+01:00</time>
      </trkpt>
      <trkpt lat="43.50632" lon="1.08478">
        <ele>269</ele>
        <time>2020-01-15T18:09:17+01:00</time>
      </trkpt>
      <trkpt lat="43.50632" lon="1.08491">
        <ele>268</ele>
        <time>2020-01-15T18:09:25+01:00</time>
      </trkpt>
      <trkpt lat="43.50629" lon="1.08503">
        <ele>268</ele>
        <time>2020-01-15T18:09:32+01:00</time>
      </trkpt>
      <trkpt lat="43.50627" lon="1.08517">
        <ele>268</ele>
        <time>2020-01-15T18:09:41+01:00</time>
      </trkpt>
      <trkpt lat="43.50627" lon="1.0853">
        <ele>268</ele>
        <time>2020-01-15T18:09:48+01:00</time>
      </trkpt>
      <trkpt lat="43.50624" lon="1.08544">
        <ele>268</ele>
        <time>2020-01-15T18:09:56+01:00</time>
      </trkpt>
      <trkpt lat="43.50623" lon="1.08558">
        <ele>268</ele>
        <time>2020-01-15T18:10:05+01:00</time>
      </trkpt>
      <trkpt lat="43.50618" lon="1.08613">
        <ele>268</ele>
        <time>2020-01-15T18:10:37+01:00</time>
      </trkpt>
      <trkpt lat="43.50613" lon="1.08638">
        <ele>267</ele>
        <time>2020-01-15T18:10:52+01:00</time>
      </trkpt>
      <trkpt lat="43.50612" lon="1.08651">
        <ele>267</ele>
        <time>2020-01-15T18:11:00+01:00</time>
      </trkpt>
      <trkpt lat="43.50607" lon="1.08663">
        <ele>267</ele>
        <time>2020-01-15T18:11:07+01:00</time>
      </trkpt>
      <trkpt lat="43.50607" lon="1.08676">
        <ele>267</ele>
        <time>2020-01-15T18:11:15+01:00</time>
      </trkpt>
      <trkpt lat="43.50604" lon="1.0869">
        <ele>267</ele>
        <time>2020-01-15T18:11:23+01:00</time>
      </trkpt>
      <trkpt lat="43.50603" lon="1.08703">
        <ele>267</ele>
        <time>2020-01-15T18:11:31+01:00</time>
      </trkpt>
      <trkpt lat="43.50602" lon="1.08716">
        <ele>267</ele>
        <time>2020-01-15T18:11:39+01:00</time>
      </trkpt>
      <trkpt lat="43.50601" lon="1.08731">
        <ele>267</ele>
        <time>2020-01-15T18:11:48+01:00</time>
      </trkpt>
      <trkpt lat="43.50601" lon="1.08743">
        <ele>268</ele>
        <time>2020-01-15T18:11:55+01:00</time>
      </trkpt>
      <trkpt lat="43.50601" lon="1.08757">
        <ele>268</ele>
        <time>2020-01-15T18:12:03+01:00</time>
      </trkpt>
      <trkpt lat="43.50603" lon="1.0877">
        <ele>268</ele>
        <time>2020-01-15T18:12:11+01:00</time>
      </trkpt>
      <trkpt lat="43.50607" lon="1.08783">
        <ele>268</ele>
        <time>2020-01-15T18:12:18+01:00</time>
      </trkpt>
      <trkpt lat="43.50606" lon="1.08797">
        <ele>269</ele>
        <time>2020-01-15T18:12:27+01:00</time>
      </trkpt>
      <trkpt lat="43.50605" lon="1.08809">
        <ele>269</ele>
        <time>2020-01-15T18:12:34+01:00</time>
      </trkpt>
      <trkpt lat="43.506" lon="1.0882">
        <ele>269</ele>
        <time>2020-01-15T18:12:41+01:00</time>
      </trkpt>
      <trkpt lat="43.50592" lon="1.08829">
        <ele>268</ele>
        <time>2020-01-15T18:12:49+01:00</time>
      </trkpt>
      <trkpt lat="43.50585" lon="1.08836">
        <ele>268</ele>
        <time>2020-01-15T18:12:56+01:00</time>
      </trkpt>
      <trkpt lat="43.50576" lon="1.08841">
        <ele>268</ele>
        <time>2020-01-15T18:13:04+01:00</time>
      </trkpt>
      <trkpt lat="43.50568" lon="1.08851">
        <ele>268</ele>
        <time>2020-01-15T18:13:13+01:00</time>
      </trkpt>
      <trkpt lat="43.50563" lon="1.08863">
        <ele>268</ele>
        <time>2020-01-15T18:13:21+01:00</time>
      </trkpt>
      <trkpt lat="43.5056" lon="1.08876">
        <ele>268</ele>
        <time>2020-01-15T18:13:29+01:00</time>
      </trkpt>
      <trkpt lat="43.50556" lon="1.08889">
        <ele>268</ele>
        <time>2020-01-15T18:13:37+01:00</time>
      </trkpt>
      <trkpt lat="43.50552" lon="1.08902">
        <ele>268</ele>
        <time>2020-01-15T18:13:45+01:00</time>
      </trkpt>
      <trkpt lat="43.50549" lon="1.08919">
        <ele>269</ele>
        <time>2020-01-15T18:13:56+01:00</time>
      </trkpt>
      <trkpt lat="43.50545" lon="1.08928">
        <ele>269</ele>
        <time>2020-01-15T18:14:01+01:00</time>
      </trkpt>
      <trkpt lat="43.5054" lon="1.08948">
        <ele>269</ele>
        <time>2020-01-15T18:14:14+01:00</time>
      </trkpt>
      <trkpt lat="43.5053" lon="1.08988">
        <ele>269</ele>
        <time>2020-01-15T18:14:38+01:00</time>
      </trkpt>
      <trkpt lat="43.50528" lon="1.08996">
        <ele>269</ele>
        <time>2020-01-15T18:14:44+01:00</time>
      </trkpt>
      <trkpt lat="43.50528" lon="1.09001">
        <ele>269</ele>
        <time>2020-01-15T18:14:46+01:00</time>
      </trkpt>
      <trkpt lat="43.5053" lon="1.09009">
        <ele>269</ele>
        <time>2020-01-15T18:14:52+01:00</time>
      </trkpt>
      <trkpt lat="43.50534" lon="1.09013">
        <ele>270</ele>
        <time>2020-01-15T18:14:56+01:00</time>
      </trkpt>
      <trkpt lat="43.50542" lon="1.09021">
        <ele>271</ele>
        <time>2020-01-15T18:15:03+01:00</time>
      </trkpt>
      <trkpt lat="43.50546" lon="1.09033">
        <ele>271</ele>
        <time>2020-01-15T18:15:11+01:00</time>
      </trkpt>
      <trkpt lat="43.50543" lon="1.09046">
        <ele>271</ele>
        <time>2020-01-15T18:15:19+01:00</time>
      </trkpt>
      <trkpt lat="43.50541" lon="1.09059">
        <ele>271</ele>
        <time>2020-01-15T18:15:27+01:00</time>
      </trkpt>
      <trkpt lat="43.50539" lon="1.09071">
        <ele>272</ele>
        <time>2020-01-15T18:15:34+01:00</time>
      </trkpt>
      <trkpt lat="43.50537" lon="1.09085">
        <ele>272</ele>
        <time>2020-01-15T18:15:42+01:00</time>
      </trkpt>
      <trkpt lat="43.50534" lon="1.09097">
        <ele>272</ele>
        <time>2020-01-15T18:15:50+01:00</time>
      </trkpt>
      <trkpt lat="43.50531" lon="1.0911">
        <ele>271</ele>
        <time>2020-01-15T18:15:57+01:00</time>
      </trkpt>
      <trkpt lat="43.50529" lon="1.09122">
        <ele>271</ele>
        <time>2020-01-15T18:16:05+01:00</time>
      </trkpt>
      <trkpt lat="43.50511" lon="1.09112">
        <ele>269</ele>
        <time>2020-01-15T18:16:20+01:00</time>
      </trkpt>
      <trkpt lat="43.50489" lon="1.09104">
        <ele>267</ele>
        <time>2020-01-15T18:16:39+01:00</time>
      </trkpt>
      <trkpt lat="43.50473" lon="1.09092">
        <ele>265</ele>
        <time>2020-01-15T18:16:53+01:00</time>
      </trkpt>
      <trkpt lat="43.50456" lon="1.09091">
        <ele>264</ele>
        <time>2020-01-15T18:17:06+01:00</time>
      </trkpt>
      <trkpt lat="43.50441" lon="1.0912">
        <ele>262</ele>
        <time>2020-01-15T18:17:27+01:00</time>
      </trkpt>
      <trkpt lat="43.50428" lon="1.09162">
        <ele>261</ele>
        <time>2020-01-15T18:17:54+01:00</time>
      </trkpt>
      <trkpt lat="43.5041" lon="1.09193">
        <ele>260</ele>
        <time>2020-01-15T18:18:16+01:00</time>
      </trkpt>
      <trkpt lat="43.50401" lon="1.09219">
        <ele>259</ele>
        <time>2020-01-15T18:18:33+01:00</time>
      </trkpt>
      <trkpt lat="43.50392" lon="1.09242">
        <ele>259</ele>
        <time>2020-01-15T18:18:48+01:00</time>
      </trkpt>
      <trkpt lat="43.50383" lon="1.09261">
        <ele>259</ele>
        <time>2020-01-15T18:19:02+01:00</time>
      </trkpt>
      <trkpt lat="43.50349" lon="1.0932">
        <ele>260</ele>
        <time>2020-01-15T18:19:45+01:00</time>
      </trkpt>
      <trkpt lat="43.50328" lon="1.0937">
        <ele>259</ele>
        <time>2020-01-15T18:20:19+01:00</time>
      </trkpt>
      <trkpt lat="43.50314" lon="1.09416">
        <ele>259</ele>
        <time>2020-01-15T18:20:48+01:00</time>
      </trkpt>
      <trkpt lat="43.50311" lon="1.09429">
        <ele>258</ele>
        <time>2020-01-15T18:20:56+01:00</time>
      </trkpt>
      <trkpt lat="43.50307" lon="1.0944">
        <ele>258</ele>
        <time>2020-01-15T18:21:03+01:00</time>
      </trkpt>
      <trkpt lat="43.5031" lon="1.09466">
        <ele>258</ele>
        <time>2020-01-15T18:21:18+01:00</time>
      </trkpt>
      <trkpt lat="43.5031" lon="1.09505">
        <ele>258</ele>
        <time>2020-01-15T18:21:41+01:00</time>
      </trkpt>
      <trkpt lat="43.50308" lon="1.09518">
        <ele>258</ele>
        <time>2020-01-15T18:21:48+01:00</time>
      </trkpt>
      <trkpt lat="43.50303" lon="1.09529">
        <ele>258</ele>
        <time>2020-01-15T18:21:56+01:00</time>
      </trkpt>
      <trkpt lat="43.50298" lon="1.0954">
        <ele>257</ele>
        <time>2020-01-15T18:22:04+01:00</time>
      </trkpt>
      <trkpt lat="43.50292" lon="1.09551">
        <ele>257</ele>
        <time>2020-01-15T18:22:12+01:00</time>
      </trkpt>
      <trkpt lat="43.50286" lon="1.09563">
        <ele>257</ele>
        <time>2020-01-15T18:22:20+01:00</time>
      </trkpt>
      <trkpt lat="43.50279" lon="1.09585">
        <ele>256</ele>
        <time>2020-01-15T18:22:34+01:00</time>
      </trkpt>
      <trkpt lat="43.50267" lon="1.09606">
        <ele>255</ele>
        <time>2020-01-15T18:22:50+01:00</time>
      </trkpt>
      <trkpt lat="43.50259" lon="1.09635">
        <ele>255</ele>
        <time>2020-01-15T18:23:08+01:00</time>
      </trkpt>
      <trkpt lat="43.50275" lon="1.09656">
        <ele>256</ele>
        <time>2020-01-15T18:23:26+01:00</time>
      </trkpt>
      <trkpt lat="43.50282" lon="1.09668">
        <ele>256</ele>
        <time>2020-01-15T18:23:34+01:00</time>
      </trkpt>
      <trkpt lat="43.50287" lon="1.09678">
        <ele>256</ele>
        <time>2020-01-15T18:23:42+01:00</time>
      </trkpt>
      <trkpt lat="43.50284" lon="1.0969">
        <ele>256</ele>
        <time>2020-01-15T18:23:50+01:00</time>
      </trkpt>
      <trkpt lat="43.50279" lon="1.09702">
        <ele>255</ele>
        <time>2020-01-15T18:23:58+01:00</time>
      </trkpt>
      <trkpt lat="43.50277" lon="1.09716">
        <ele>255</ele>
        <time>2020-01-15T18:24:06+01:00</time>
      </trkpt>
      <trkpt lat="43.50274" lon="1.09729">
        <ele>255</ele>
        <time>2020-01-15T18:24:14+01:00</time>
      </trkpt>
      <trkpt lat="43.5027" lon="1.0974">
        <ele>255</ele>
        <time>2020-01-15T18:24:21+01:00</time>
      </trkpt>
      <trkpt lat="43.50265" lon="1.09753">
        <ele>254</ele>
        <time>2020-01-15T18:24:29+01:00</time>
      </trkpt>
      <trkpt lat="43.50259" lon="1.09765">
        <ele>254</ele>
        <time>2020-01-15T18:24:38+01:00</time>
      </trkpt>
      <trkpt lat="43.50253" lon="1.09775">
        <ele>253</ele>
        <time>2020-01-15T18:24:45+01:00</time>
      </trkpt>
      <trkpt lat="43.50248" lon="1.09788">
        <ele>253</ele>
        <time>2020-01-15T18:24:54+01:00</time>
      </trkpt>
      <trkpt lat="43.50244" lon="1.098">
        <ele>253</ele>
        <time>2020-01-15T18:25:02+01:00</time>
      </trkpt>
      <trkpt lat="43.50239" lon="1.09811">
        <ele>253</ele>
        <time>2020-01-15T18:25:10+01:00</time>
      </trkpt>
      <trkpt lat="43.50231" lon="1.0982">
        <ele>252</ele>
        <time>2020-01-15T18:25:18+01:00</time>
      </trkpt>
      <trkpt lat="43.50227" lon="1.09833">
        <ele>252</ele>
        <time>2020-01-15T18:25:26+01:00</time>
      </trkpt>
      <trkpt lat="43.50225" lon="1.09847">
        <ele>252</ele>
        <time>2020-01-15T18:25:34+01:00</time>
      </trkpt>
      <trkpt lat="43.50224" lon="1.0986">
        <ele>252</ele>
        <time>2020-01-15T18:25:42+01:00</time>
      </trkpt>
      <trkpt lat="43.50224" lon="1.09874">
        <ele>252</ele>
        <time>2020-01-15T18:25:50+01:00</time>
      </trkpt>
      <trkpt lat="43.50222" lon="1.09889">
        <ele>252</ele>
        <time>2020-01-15T18:25:59+01:00</time>
      </trkpt>
      <trkpt lat="43.5022" lon="1.09902">
        <ele>252</ele>
        <time>2020-01-15T18:26:07+01:00</time>
      </trkpt>
      <trkpt lat="43.50222" lon="1.09916">
        <ele>252</ele>
        <time>2020-01-15T18:26:15+01:00</time>
      </trkpt>
      <trkpt lat="43.50224" lon="1.09929">
        <ele>252</ele>
        <time>2020-01-15T18:26:22+01:00</time>
      </trkpt>
      <trkpt lat="43.50226" lon="1.09942">
        <ele>252</ele>
        <time>2020-01-15T18:26:30+01:00</time>
      </trkpt>
      <trkpt lat="43.50228" lon="1.09955">
        <ele>252</ele>
        <time>2020-01-15T18:26:38+01:00</time>
      </trkpt>
      <trkpt lat="43.50228" lon="1.09968">
        <ele>252</ele>
        <time>2020-01-15T18:26:45+01:00</time>
      </trkpt>
      <trkpt lat="43.5023" lon="1.09981">
        <ele>253</ele>
        <time>2020-01-15T18:26:53+01:00</time>
      </trkpt>
      <trkpt lat="43.5023" lon="1.09995">
        <ele>253</ele>
        <time>2020-01-15T18:27:01+01:00</time>
      </trkpt>
      <trkpt lat="43.50234" lon="1.10006">
        <ele>253</ele>
        <time>2020-01-15T18:27:08+01:00</time>
      </trkpt>
      <trkpt lat="43.50234" lon="1.1002">
        <ele>253</ele>
        <time>2020-01-15T18:27:17+01:00</time>
      </trkpt>
      <trkpt lat="43.50233" lon="1.10033">
        <ele>253</ele>
        <time>2020-01-15T18:27:24+01:00</time>
      </trkpt>
      <trkpt lat="43.50237" lon="1.10046">
        <ele>253</ele>
        <time>2020-01-15T18:27:32+01:00</time>
      </trkpt>
      <trkpt lat="43.50239" lon="1.1006">
        <ele>253</ele>
        <time>2020-01-15T18:27:40+01:00</time>
      </trkpt>
      <trkpt lat="43.50238" lon="1.10073">
        <ele>253</ele>
        <time>2020-01-15T18:27:48+01:00</time>
      </trkpt>
      <trkpt lat="43.50237" lon="1.10086">
        <ele>253</ele>
        <time>2020-01-15T18:27:55+01:00</time>
      </trkpt>
      <trkpt lat="43.50237" lon="1.101">
        <ele>253</ele>
        <time>2020-01-15T18:28:04+01:00</time>
      </trkpt>
      <trkpt lat="43.50238" lon="1.10113">
        <ele>253</ele>
        <time>2020-01-15T18:28:11+01:00</time>
      </trkpt>
      <trkpt lat="43.50241" lon="1.10125">
        <ele>253</ele>
        <time>2020-01-15T18:28:19+01:00</time>
      </trkpt>
      <trkpt lat="43.50245" lon="1.10136">
        <ele>253</ele>
        <time>2020-01-15T18:28:26+01:00</time>
      </trkpt>
      <trkpt lat="43.50244" lon="1.1015">
        <ele>253</ele>
        <time>2020-01-15T18:28:34+01:00</time>
      </trkpt>
      <trkpt lat="43.50246" lon="1.10163">
        <ele>253</ele>
        <time>2020-01-15T18:28:42+01:00</time>
      </trkpt>
      <trkpt lat="43.50248" lon="1.10176">
        <ele>253</ele>
        <time>2020-01-15T18:28:50+01:00</time>
      </trkpt>
      <trkpt lat="43.5025" lon="1.10189">
        <ele>252</ele>
        <time>2020-01-15T18:28:57+01:00</time>
      </trkpt>
      <trkpt lat="43.50256" lon="1.10237">
        <ele>252</ele>
        <time>2020-01-15T18:29:26+01:00</time>
      </trkpt>
      <trkpt lat="43.50256" lon="1.10254">
        <ele>252</ele>
        <time>2020-01-15T18:29:36+01:00</time>
      </trkpt>
      <trkpt lat="43.50257" lon="1.10269">
        <ele>252</ele>
        <time>2020-01-15T18:29:44+01:00</time>
      </trkpt>
      <trkpt lat="43.50259" lon="1.10281">
        <ele>252</ele>
        <time>2020-01-15T18:29:52+01:00</time>
      </trkpt>
      <trkpt lat="43.50261" lon="1.10294">
        <ele>252</ele>
        <time>2020-01-15T18:29:59+01:00</time>
      </trkpt>
      <trkpt lat="43.50261" lon="1.10308">
        <ele>252</ele>
        <time>2020-01-15T18:30:07+01:00</time>
      </trkpt>
      <trkpt lat="43.50263" lon="1.10322">
        <ele>252</ele>
        <time>2020-01-15T18:30:15+01:00</time>
      </trkpt>
      <trkpt lat="43.50265" lon="1.10334">
        <ele>253</ele>
        <time>2020-01-15T18:30:23+01:00</time>
      </trkpt>
      <trkpt lat="43.50267" lon="1.10346">
        <ele>252</ele>
        <time>2020-01-15T18:30:30+01:00</time>
      </trkpt>
      <trkpt lat="43.50268" lon="1.10359">
        <ele>252</ele>
        <time>2020-01-15T18:30:38+01:00</time>
      </trkpt>
      <trkpt lat="43.50271" lon="1.10371">
        <ele>252</ele>
        <time>2020-01-15T18:30:45+01:00</time>
      </trkpt>
      <trkpt lat="43.50273" lon="1.10386">
        <ele>252</ele>
        <time>2020-01-15T18:30:54+01:00</time>
      </trkpt>
      <trkpt lat="43.50273" lon="1.104">
        <ele>252</ele>
        <time>2020-01-15T18:31:02+01:00</time>
      </trkpt>
      <trkpt lat="43.50272" lon="1.10413">
        <ele>252</ele>
        <time>2020-01-15T18:31:10+01:00</time>
      </trkpt>
      <trkpt lat="43.50269" lon="1.10426">
        <ele>252</ele>
        <time>2020-01-15T18:31:17+01:00</time>
      </trkpt>
      <trkpt lat="43.50266" lon="1.10439">
        <ele>252</ele>
        <time>2020-01-15T18:31:25+01:00</time>
      </trkpt>
      <trkpt lat="43.50262" lon="1.1045">
        <ele>251</ele>
        <time>2020-01-15T18:31:33+01:00</time>
      </trkpt>
      <trkpt lat="43.50261" lon="1.10468">
        <ele>251</ele>
        <time>2020-01-15T18:31:43+01:00</time>
      </trkpt>
      <trkpt lat="43.50255" lon="1.10475">
        <ele>251</ele>
        <time>2020-01-15T18:31:49+01:00</time>
      </trkpt>
      <trkpt lat="43.50252" lon="1.10501">
        <ele>251</ele>
        <time>2020-01-15T18:32:04+01:00</time>
      </trkpt>
      <trkpt lat="43.5025" lon="1.10513">
        <ele>251</ele>
        <time>2020-01-15T18:32:12+01:00</time>
      </trkpt>
      <trkpt lat="43.50248" lon="1.10523">
        <ele>250</ele>
        <time>2020-01-15T18:32:18+01:00</time>
      </trkpt>
      <trkpt lat="43.50245" lon="1.10534">
        <ele>250</ele>
        <time>2020-01-15T18:32:25+01:00</time>
      </trkpt>
      <trkpt lat="43.50241" lon="1.10547">
        <ele>250</ele>
        <time>2020-01-15T18:32:33+01:00</time>
      </trkpt>
      <trkpt lat="43.5024" lon="1.10561">
        <ele>250</ele>
        <time>2020-01-15T18:32:41+01:00</time>
      </trkpt>
      <trkpt lat="43.50237" lon="1.10573">
        <ele>250</ele>
        <time>2020-01-15T18:32:49+01:00</time>
      </trkpt>
      <trkpt lat="43.50233" lon="1.10587">
        <ele>249</ele>
        <time>2020-01-15T18:32:57+01:00</time>
      </trkpt>
      <trkpt lat="43.50232" lon="1.106">
        <ele>249</ele>
        <time>2020-01-15T18:33:05+01:00</time>
      </trkpt>
      <trkpt lat="43.50235" lon="1.10612">
        <ele>249</ele>
        <time>2020-01-15T18:33:12+01:00</time>
      </trkpt>
      <trkpt lat="43.50237" lon="1.10625">
        <ele>250</ele>
        <time>2020-01-15T18:33:20+01:00</time>
      </trkpt>
      <trkpt lat="43.50237" lon="1.10638">
        <ele>250</ele>
        <time>2020-01-15T18:33:27+01:00</time>
      </trkpt>
      <trkpt lat="43.50242" lon="1.1065">
        <ele>250</ele>
        <time>2020-01-15T18:33:35+01:00</time>
      </trkpt>
      <trkpt lat="43.50245" lon="1.10661">
        <ele>250</ele>
        <time>2020-01-15T18:33:42+01:00</time>
      </trkpt>
      <trkpt lat="43.50247" lon="1.10674">
        <ele>250</ele>
        <time>2020-01-15T18:33:50+01:00</time>
      </trkpt>
      <trkpt lat="43.50248" lon="1.10687">
        <ele>249</ele>
        <time>2020-01-15T18:33:57+01:00</time>
      </trkpt>
      <trkpt lat="43.50247" lon="1.10699">
        <ele>249</ele>
        <time>2020-01-15T18:34:05+01:00</time>
      </trkpt>
      <trkpt lat="43.50249" lon="1.10714">
        <ele>249</ele>
        <time>2020-01-15T18:34:13+01:00</time>
      </trkpt>
      <trkpt lat="43.50249" lon="1.10728">
        <ele>249</ele>
        <time>2020-01-15T18:34:21+01:00</time>
      </trkpt>
      <trkpt lat="43.5025" lon="1.10741">
        <ele>249</ele>
        <time>2020-01-15T18:34:29+01:00</time>
      </trkpt>
      <trkpt lat="43.50249" lon="1.10755">
        <ele>249</ele>
        <time>2020-01-15T18:34:37+01:00</time>
      </trkpt>
      <trkpt lat="43.50248" lon="1.10767">
        <ele>249</ele>
        <time>2020-01-15T18:34:44+01:00</time>
      </trkpt>
      <trkpt lat="43.50247" lon="1.1078">
        <ele>249</ele>
        <time>2020-01-15T18:34:52+01:00</time>
      </trkpt>
      <trkpt lat="43.50246" lon="1.10793">
        <ele>249</ele>
        <time>2020-01-15T18:35:00+01:00</time>
      </trkpt>
      <trkpt lat="43.50242" lon="1.10805">
        <ele>249</ele>
        <time>2020-01-15T18:35:07+01:00</time>
      </trkpt>
      <trkpt lat="43.50241" lon="1.10817">
        <ele>249</ele>
        <time>2020-01-15T18:35:14+01:00</time>
      </trkpt>
      <trkpt lat="43.50238" lon="1.10829">
        <ele>249</ele>
        <time>2020-01-15T18:35:21+01:00</time>
      </trkpt>
      <trkpt lat="43.50238" lon="1.10843">
        <ele>249</ele>
        <time>2020-01-15T18:35:30+01:00</time>
      </trkpt>
      <trkpt lat="43.50235" lon="1.10856">
        <ele>248</ele>
        <time>2020-01-15T18:35:38+01:00</time>
      </trkpt>
      <trkpt lat="43.50234" lon="1.10869">
        <ele>248</ele>
        <time>2020-01-15T18:35:45+01:00</time>
      </trkpt>
      <trkpt lat="43.50231" lon="1.10882">
        <ele>248</ele>
        <time>2020-01-15T18:35:53+01:00</time>
      </trkpt>
      <trkpt lat="43.50227" lon="1.10894">
        <ele>248</ele>
        <time>2020-01-15T18:36:01+01:00</time>
      </trkpt>
      <trkpt lat="43.50223" lon="1.10908">
        <ele>248</ele>
        <time>2020-01-15T18:36:09+01:00</time>
      </trkpt>
      <trkpt lat="43.50221" lon="1.1092">
        <ele>248</ele>
        <time>2020-01-15T18:36:17+01:00</time>
      </trkpt>
      <trkpt lat="43.50218" lon="1.10932">
        <ele>248</ele>
        <time>2020-01-15T18:36:24+01:00</time>
      </trkpt>
      <trkpt lat="43.50216" lon="1.10944">
        <ele>248</ele>
        <time>2020-01-15T18:36:31+01:00</time>
      </trkpt>
      <trkpt lat="43.50211" lon="1.10955">
        <ele>248</ele>
        <time>2020-01-15T18:36:39+01:00</time>
      </trkpt>
      <trkpt lat="43.50209" lon="1.10967">
        <ele>248</ele>
        <time>2020-01-15T18:36:46+01:00</time>
      </trkpt>
      <trkpt lat="43.50206" lon="1.10979">
        <ele>247</ele>
        <time>2020-01-15T18:36:54+01:00</time>
      </trkpt>
      <trkpt lat="43.50202" lon="1.10991">
        <ele>247</ele>
        <time>2020-01-15T18:37:01+01:00</time>
      </trkpt>
      <trkpt lat="43.50198" lon="1.11003">
        <ele>247</ele>
        <time>2020-01-15T18:37:09+01:00</time>
      </trkpt>
      <trkpt lat="43.50196" lon="1.11015">
        <ele>247</ele>
        <time>2020-01-15T18:37:16+01:00</time>
      </trkpt>
      <trkpt lat="43.50194" lon="1.11028">
        <ele>247</ele>
        <time>2020-01-15T18:37:24+01:00</time>
      </trkpt>
      <trkpt lat="43.5019" lon="1.11041">
        <ele>247</ele>
        <time>2020-01-15T18:37:32+01:00</time>
      </trkpt>
      <trkpt lat="43.50188" lon="1.11055">
        <ele>247</ele>
        <time>2020-01-15T18:37:40+01:00</time>
      </trkpt>
      <trkpt lat="43.50188" lon="1.11069">
        <ele>247</ele>
        <time>2020-01-15T18:37:49+01:00</time>
      </trkpt>
      <trkpt lat="43.50188" lon="1.11083">
        <ele>247</ele>
        <time>2020-01-15T18:37:57+01:00</time>
      </trkpt>
      <trkpt lat="43.50187" lon="1.11095">
        <ele>247</ele>
        <time>2020-01-15T18:38:04+01:00</time>
      </trkpt>
      <trkpt lat="43.50186" lon="1.11109">
        <ele>247</ele>
        <time>2020-01-15T18:38:12+01:00</time>
      </trkpt>
      <trkpt lat="43.50185" lon="1.11122">
        <ele>247</ele>
        <time>2020-01-15T18:38:20+01:00</time>
      </trkpt>
      <trkpt lat="43.50185" lon="1.11135">
        <ele>246</ele>
        <time>2020-01-15T18:38:27+01:00</time>
      </trkpt>
      <trkpt lat="43.50185" lon="1.11148">
        <ele>246</ele>
        <time>2020-01-15T18:38:35+01:00</time>
      </trkpt>
      <trkpt lat="43.50183" lon="1.11162">
        <ele>246</ele>
        <time>2020-01-15T18:38:43+01:00</time>
      </trkpt>
      <trkpt lat="43.50182" lon="1.11176">
        <ele>246</ele>
        <time>2020-01-15T18:38:51+01:00</time>
      </trkpt>
      <trkpt lat="43.50181" lon="1.11188">
        <ele>246</ele>
        <time>2020-01-15T18:38:58+01:00</time>
      </trkpt>
      <trkpt lat="43.50181" lon="1.11203">
        <ele>246</ele>
        <time>2020-01-15T18:39:07+01:00</time>
      </trkpt>
      <trkpt lat="43.50181" lon="1.11216">
        <ele>245</ele>
        <time>2020-01-15T18:39:14+01:00</time>
      </trkpt>
      <trkpt lat="43.5018" lon="1.11229">
        <ele>245</ele>
        <time>2020-01-15T18:39:22+01:00</time>
      </trkpt>
      <trkpt lat="43.5018" lon="1.11245">
        <ele>245</ele>
        <time>2020-01-15T18:39:32+01:00</time>
      </trkpt>
      <trkpt lat="43.50181" lon="1.11259">
        <ele>246</ele>
        <time>2020-01-15T18:39:40+01:00</time>
      </trkpt>
      <trkpt lat="43.5018" lon="1.11274">
        <ele>245</ele>
        <time>2020-01-15T18:39:48+01:00</time>
      </trkpt>
      <trkpt lat="43.50177" lon="1.11287">
        <ele>245</ele>
        <time>2020-01-15T18:39:57+01:00</time>
      </trkpt>
      <trkpt lat="43.50175" lon="1.113">
        <ele>245</ele>
        <time>2020-01-15T18:40:04+01:00</time>
      </trkpt>
      <trkpt lat="43.50175" lon="1.11313">
        <ele>245</ele>
        <time>2020-01-15T18:40:12+01:00</time>
      </trkpt>
      <trkpt lat="43.50175" lon="1.11327">
        <ele>246</ele>
        <time>2020-01-15T18:40:20+01:00</time>
      </trkpt>
      <trkpt lat="43.50173" lon="1.11339">
        <ele>245</ele>
        <time>2020-01-15T18:40:27+01:00</time>
      </trkpt>
      <trkpt lat="43.50172" lon="1.11352">
        <ele>245</ele>
        <time>2020-01-15T18:40:35+01:00</time>
      </trkpt>
      <trkpt lat="43.50168" lon="1.11364">
        <ele>245</ele>
        <time>2020-01-15T18:40:42+01:00</time>
      </trkpt>
      <trkpt lat="43.50162" lon="1.11374">
        <ele>245</ele>
        <time>2020-01-15T18:40:50+01:00</time>
      </trkpt>
      <trkpt lat="43.50156" lon="1.11386">
        <ele>245</ele>
        <time>2020-01-15T18:40:58+01:00</time>
      </trkpt>
      <trkpt lat="43.50149" lon="1.11397">
        <ele>244</ele>
        <time>2020-01-15T18:41:07+01:00</time>
      </trkpt>
      <trkpt lat="43.50146" lon="1.11409">
        <ele>244</ele>
        <time>2020-01-15T18:41:14+01:00</time>
      </trkpt>
      <trkpt lat="43.50142" lon="1.1142">
        <ele>244</ele>
        <time>2020-01-15T18:41:21+01:00</time>
      </trkpt>
      <trkpt lat="43.50137" lon="1.11432">
        <ele>244</ele>
        <time>2020-01-15T18:41:30+01:00</time>
      </trkpt>
      <trkpt lat="43.50132" lon="1.11443">
        <ele>244</ele>
        <time>2020-01-15T18:41:37+01:00</time>
      </trkpt>
      <trkpt lat="43.50133" lon="1.11457">
        <ele>244</ele>
        <time>2020-01-15T18:41:45+01:00</time>
      </trkpt>
      <trkpt lat="43.50133" lon="1.1147">
        <ele>244</ele>
        <time>2020-01-15T18:41:53+01:00</time>
      </trkpt>
      <trkpt lat="43.50134" lon="1.11483">
        <ele>244</ele>
        <time>2020-01-15T18:42:00+01:00</time>
      </trkpt>
      <trkpt lat="43.50131" lon="1.11496">
        <ele>244</ele>
        <time>2020-01-15T18:42:08+01:00</time>
      </trkpt>
      <trkpt lat="43.50128" lon="1.11508">
        <ele>244</ele>
        <time>2020-01-15T18:42:16+01:00</time>
      </trkpt>
      <trkpt lat="43.50124" lon="1.11522">
        <ele>243</ele>
        <time>2020-01-15T18:42:24+01:00</time>
      </trkpt>
      <trkpt lat="43.50125" lon="1.11535">
        <ele>243</ele>
        <time>2020-01-15T18:42:32+01:00</time>
      </trkpt>
      <trkpt lat="43.50123" lon="1.11548">
        <ele>243</ele>
        <time>2020-01-15T18:42:39+01:00</time>
      </trkpt>
      <trkpt lat="43.5012" lon="1.11562">
        <ele>243</ele>
        <time>2020-01-15T18:42:48+01:00</time>
      </trkpt>
      <trkpt lat="43.50119" lon="1.11575">
        <ele>243</ele>
        <time>2020-01-15T18:42:56+01:00</time>
      </trkpt>
      <trkpt lat="43.50119" lon="1.11588">
        <ele>243</ele>
        <time>2020-01-15T18:43:03+01:00</time>
      </trkpt>
      <trkpt lat="43.5012" lon="1.11601">
        <ele>243</ele>
        <time>2020-01-15T18:43:11+01:00</time>
      </trkpt>
      <trkpt lat="43.50119" lon="1.11613">
        <ele>242</ele>
        <time>2020-01-15T18:43:18+01:00</time>
      </trkpt>
      <trkpt lat="43.50118" lon="1.11628">
        <ele>242</ele>
        <time>2020-01-15T18:43:27+01:00</time>
      </trkpt>
      <trkpt lat="43.5012" lon="1.11641">
        <ele>242</ele>
        <time>2020-01-15T18:43:34+01:00</time>
      </trkpt>
      <trkpt lat="43.5012" lon="1.11653">
        <ele>242</ele>
        <time>2020-01-15T18:43:42+01:00</time>
      </trkpt>
      <trkpt lat="43.50121" lon="1.11666">
        <ele>243</ele>
        <time>2020-01-15T18:43:49+01:00</time>
      </trkpt>
      <trkpt lat="43.50124" lon="1.11679">
        <ele>243</ele>
        <time>2020-01-15T18:43:57+01:00</time>
      </trkpt>
      <trkpt lat="43.50125" lon="1.11692">
        <ele>243</ele>
        <time>2020-01-15T18:44:05+01:00</time>
      </trkpt>
      <trkpt lat="43.50125" lon="1.11707">
        <ele>243</ele>
        <time>2020-01-15T18:44:13+01:00</time>
      </trkpt>
      <trkpt lat="43.50127" lon="1.11722">
        <ele>243</ele>
        <time>2020-01-15T18:44:22+01:00</time>
      </trkpt>
      <trkpt lat="43.50125" lon="1.11734">
        <ele>243</ele>
        <time>2020-01-15T18:44:29+01:00</time>
      </trkpt>
      <trkpt lat="43.50123" lon="1.11747">
        <ele>243</ele>
        <time>2020-01-15T18:44:37+01:00</time>
      </trkpt>
      <trkpt lat="43.5012" lon="1.11761">
        <ele>243</ele>
        <time>2020-01-15T18:44:45+01:00</time>
      </trkpt>
      <trkpt lat="43.50119" lon="1.11774">
        <ele>243</ele>
        <time>2020-01-15T18:44:53+01:00</time>
      </trkpt>
      <trkpt lat="43.50118" lon="1.11787">
        <ele>243</ele>
        <time>2020-01-15T18:45:01+01:00</time>
      </trkpt>
      <trkpt lat="43.50114" lon="1.118">
        <ele>243</ele>
        <time>2020-01-15T18:45:09+01:00</time>
      </trkpt>
      <trkpt lat="43.50111" lon="1.11812">
        <ele>243</ele>
        <time>2020-01-15T18:45:16+01:00</time>
      </trkpt>
      <trkpt lat="43.50108" lon="1.11824">
        <ele>243</ele>
        <time>2020-01-15T18:45:24+01:00</time>
      </trkpt>
      <trkpt lat="43.50108" lon="1.11837">
        <ele>243</ele>
        <time>2020-01-15T18:45:31+01:00</time>
      </trkpt>
      <trkpt lat="43.50104" lon="1.11849">
        <ele>243</ele>
        <time>2020-01-15T18:45:39+01:00</time>
      </trkpt>
      <trkpt lat="43.50099" lon="1.11863">
        <ele>243</ele>
        <time>2020-01-15T18:45:48+01:00</time>
      </trkpt>
      <trkpt lat="43.50094" lon="1.11876">
        <ele>242</ele>
        <time>2020-01-15T18:45:57+01:00</time>
      </trkpt>
      <trkpt lat="43.50091" lon="1.11889">
        <ele>242</ele>
        <time>2020-01-15T18:46:04+01:00</time>
      </trkpt>
      <trkpt lat="43.50087" lon="1.11903">
        <ele>242</ele>
        <time>2020-01-15T18:46:13+01:00</time>
      </trkpt>
      <trkpt lat="43.50084" lon="1.11915">
        <ele>242</ele>
        <time>2020-01-15T18:46:21+01:00</time>
      </trkpt>
      <trkpt lat="43.50081" lon="1.11928">
        <ele>242</ele>
        <time>2020-01-15T18:46:28+01:00</time>
      </trkpt>
      <trkpt lat="43.50076" lon="1.1194">
        <ele>243</ele>
        <time>2020-01-15T18:46:37+01:00</time>
      </trkpt>
      <trkpt lat="43.50073" lon="1.11952">
        <ele>243</ele>
        <time>2020-01-15T18:46:44+01:00</time>
      </trkpt>
      <trkpt lat="43.50073" lon="1.11965">
        <ele>243</ele>
        <time>2020-01-15T18:46:52+01:00</time>
      </trkpt>
      <trkpt lat="43.50068" lon="1.11975">
        <ele>242</ele>
        <time>2020-01-15T18:46:59+01:00</time>
      </trkpt>
      <trkpt lat="43.50062" lon="1.11984">
        <ele>242</ele>
        <time>2020-01-15T18:47:06+01:00</time>
      </trkpt>
      <trkpt lat="43.50056" lon="1.11994">
        <ele>242</ele>
        <time>2020-01-15T18:47:14+01:00</time>
      </trkpt>
      <trkpt lat="43.50052" lon="1.12006">
        <ele>242</ele>
        <time>2020-01-15T18:47:21+01:00</time>
      </trkpt>
      <trkpt lat="43.50047" lon="1.12018">
        <ele>242</ele>
        <time>2020-01-15T18:47:29+01:00</time>
      </trkpt>
      <trkpt lat="43.5004" lon="1.12026">
        <ele>242</ele>
        <time>2020-01-15T18:47:36+01:00</time>
      </trkpt>
      <trkpt lat="43.5004" lon="1.1204">
        <ele>242</ele>
        <time>2020-01-15T18:47:44+01:00</time>
      </trkpt>
      <trkpt lat="43.50035" lon="1.12051">
        <ele>242</ele>
        <time>2020-01-15T18:47:52+01:00</time>
      </trkpt>
      <trkpt lat="43.50029" lon="1.12062">
        <ele>242</ele>
        <time>2020-01-15T18:48:00+01:00</time>
      </trkpt>
      <trkpt lat="43.50025" lon="1.12073">
        <ele>242</ele>
        <time>2020-01-15T18:48:07+01:00</time>
      </trkpt>
      <trkpt lat="43.50017" lon="1.12083">
        <ele>242</ele>
        <time>2020-01-15T18:48:16+01:00</time>
      </trkpt>
      <trkpt lat="43.50011" lon="1.12093">
        <ele>242</ele>
        <time>2020-01-15T18:48:23+01:00</time>
      </trkpt>
      <trkpt lat="43.50006" lon="1.12104">
        <ele>242</ele>
        <time>2020-01-15T18:48:31+01:00</time>
      </trkpt>
      <trkpt lat="43.50001" lon="1.12118">
        <ele>242</ele>
        <time>2020-01-15T18:48:40+01:00</time>
      </trkpt>
      <trkpt lat="43.49996" lon="1.12128">
        <ele>242</ele>
        <time>2020-01-15T18:48:47+01:00</time>
      </trkpt>
      <trkpt lat="43.49989" lon="1.12138">
        <ele>242</ele>
        <time>2020-01-15T18:48:55+01:00</time>
      </trkpt>
      <trkpt lat="43.49985" lon="1.1215">
        <ele>242</ele>
        <time>2020-01-15T18:49:02+01:00</time>
      </trkpt>
      <trkpt lat="43.49978" lon="1.12158">
        <ele>242</ele>
        <time>2020-01-15T18:49:10+01:00</time>
      </trkpt>
      <trkpt lat="43.49973" lon="1.12169">
        <ele>242</ele>
        <time>2020-01-15T18:49:17+01:00</time>
      </trkpt>
      <trkpt lat="43.49973" lon="1.12183">
        <ele>242</ele>
        <time>2020-01-15T18:49:26+01:00</time>
      </trkpt>
      <trkpt lat="43.49969" lon="1.12195">
        <ele>242</ele>
        <time>2020-01-15T18:49:33+01:00</time>
      </trkpt>
      <trkpt lat="43.49966" lon="1.12208">
        <ele>242</ele>
        <time>2020-01-15T18:49:41+01:00</time>
      </trkpt>
      <trkpt lat="43.49963" lon="1.1222">
        <ele>242</ele>
        <time>2020-01-15T18:49:48+01:00</time>
      </trkpt>
      <trkpt lat="43.49961" lon="1.12233">
        <ele>242</ele>
        <time>2020-01-15T18:49:56+01:00</time>
      </trkpt>
      <trkpt lat="43.49959" lon="1.12247">
        <ele>242</ele>
        <time>2020-01-15T18:50:05+01:00</time>
      </trkpt>
      <trkpt lat="43.49957" lon="1.12261">
        <ele>242</ele>
        <time>2020-01-15T18:50:12+01:00</time>
      </trkpt>
      <trkpt lat="43.49955" lon="1.12274">
        <ele>242</ele>
        <time>2020-01-15T18:50:21+01:00</time>
      </trkpt>
      <trkpt lat="43.49951" lon="1.12286">
        <ele>242</ele>
        <time>2020-01-15T18:50:28+01:00</time>
      </trkpt>
      <trkpt lat="43.49949" lon="1.12298">
        <ele>242</ele>
        <time>2020-01-15T18:50:35+01:00</time>
      </trkpt>
      <trkpt lat="43.49946" lon="1.1231">
        <ele>242</ele>
        <time>2020-01-15T18:50:43+01:00</time>
      </trkpt>
      <trkpt lat="43.49944" lon="1.12323">
        <ele>242</ele>
        <time>2020-01-15T18:50:51+01:00</time>
      </trkpt>
      <trkpt lat="43.49943" lon="1.12336">
        <ele>242</ele>
        <time>2020-01-15T18:50:58+01:00</time>
      </trkpt>
      <trkpt lat="43.4994" lon="1.12348">
        <ele>242</ele>
        <time>2020-01-15T18:51:06+01:00</time>
      </trkpt>
      <trkpt lat="43.49937" lon="1.1236">
        <ele>242</ele>
        <time>2020-01-15T18:51:13+01:00</time>
      </trkpt>
      <trkpt lat="43.49935" lon="1.12373">
        <ele>242</ele>
        <time>2020-01-15T18:51:21+01:00</time>
      </trkpt>
      <trkpt lat="43.49933" lon="1.12386">
        <ele>243</ele>
        <time>2020-01-15T18:51:28+01:00</time>
      </trkpt>
      <trkpt lat="43.49933" lon="1.12398">
        <ele>243</ele>
        <time>2020-01-15T18:51:35+01:00</time>
      </trkpt>
      <trkpt lat="43.49932" lon="1.12413">
        <ele>243</ele>
        <time>2020-01-15T18:51:44+01:00</time>
      </trkpt>
      <trkpt lat="43.49927" lon="1.12425">
        <ele>242</ele>
        <time>2020-01-15T18:51:52+01:00</time>
      </trkpt>
      <trkpt lat="43.49925" lon="1.12438">
        <ele>243</ele>
        <time>2020-01-15T18:52:00+01:00</time>
      </trkpt>
      <trkpt lat="43.49921" lon="1.12451">
        <ele>242</ele>
        <time>2020-01-15T18:52:08+01:00</time>
      </trkpt>
      <trkpt lat="43.49918" lon="1.12464">
        <ele>242</ele>
        <time>2020-01-15T18:52:16+01:00</time>
      </trkpt>
      <trkpt lat="43.49915" lon="1.12476">
        <ele>242</ele>
        <time>2020-01-15T18:52:23+01:00</time>
      </trkpt>
      <trkpt lat="43.49913" lon="1.12489">
        <ele>242</ele>
        <time>2020-01-15T18:52:31+01:00</time>
      </trkpt>
      <trkpt lat="43.49911" lon="1.12502">
        <ele>242</ele>
        <time>2020-01-15T18:52:38+01:00</time>
      </trkpt>
      <trkpt lat="43.49909" lon="1.12517">
        <ele>242</ele>
        <time>2020-01-15T18:52:47+01:00</time>
      </trkpt>
      <trkpt lat="43.49906" lon="1.1253">
        <ele>243</ele>
        <time>2020-01-15T18:52:56+01:00</time>
      </trkpt>
      <trkpt lat="43.49903" lon="1.12543">
        <ele>243</ele>
        <time>2020-01-15T18:53:03+01:00</time>
      </trkpt>
      <trkpt lat="43.49901" lon="1.12557">
        <ele>242</ele>
        <time>2020-01-15T18:53:12+01:00</time>
      </trkpt>
      <trkpt lat="43.499" lon="1.12569">
        <ele>242</ele>
        <time>2020-01-15T18:53:19+01:00</time>
      </trkpt>
      <trkpt lat="43.49901" lon="1.12583">
        <ele>242</ele>
        <time>2020-01-15T18:53:27+01:00</time>
      </trkpt>
      <trkpt lat="43.49901" lon="1.12596">
        <ele>243</ele>
        <time>2020-01-15T18:53:35+01:00</time>
      </trkpt>
      <trkpt lat="43.49903" lon="1.1261">
        <ele>243</ele>
        <time>2020-01-15T18:53:43+01:00</time>
      </trkpt>
      <trkpt lat="43.49904" lon="1.12623">
        <ele>243</ele>
        <time>2020-01-15T18:53:51+01:00</time>
      </trkpt>
      <trkpt lat="43.49902" lon="1.12637">
        <ele>243</ele>
        <time>2020-01-15T18:53:59+01:00</time>
      </trkpt>
      <trkpt lat="43.49897" lon="1.12651">
        <ele>243</ele>
        <time>2020-01-15T18:54:08+01:00</time>
      </trkpt>
      <trkpt lat="43.49894" lon="1.12663">
        <ele>242</ele>
        <time>2020-01-15T18:54:15+01:00</time>
      </trkpt>
      <trkpt lat="43.49892" lon="1.12677">
        <ele>242</ele>
        <time>2020-01-15T18:54:24+01:00</time>
      </trkpt>
      <trkpt lat="43.4989" lon="1.1269">
        <ele>242</ele>
        <time>2020-01-15T18:54:31+01:00</time>
      </trkpt>
      <trkpt lat="43.49891" lon="1.12703">
        <ele>242</ele>
        <time>2020-01-15T18:54:39+01:00</time>
      </trkpt>
      <trkpt lat="43.49891" lon="1.12716">
        <ele>242</ele>
        <time>2020-01-15T18:54:47+01:00</time>
      </trkpt>
      <trkpt lat="43.49892" lon="1.12729">
        <ele>242</ele>
        <time>2020-01-15T18:54:54+01:00</time>
      </trkpt>
      <trkpt lat="43.4989" lon="1.12741">
        <ele>242</ele>
        <time>2020-01-15T18:55:02+01:00</time>
      </trkpt>
      <trkpt lat="43.49888" lon="1.12755">
        <ele>242</ele>
        <time>2020-01-15T18:55:10+01:00</time>
      </trkpt>
      <trkpt lat="43.49884" lon="1.12769">
        <ele>242</ele>
        <time>2020-01-15T18:55:19+01:00</time>
      </trkpt>
      <trkpt lat="43.4988" lon="1.12781">
        <ele>242</ele>
        <time>2020-01-15T18:55:26+01:00</time>
      </trkpt>
      <trkpt lat="43.49878" lon="1.12794">
        <ele>242</ele>
        <time>2020-01-15T18:55:34+01:00</time>
      </trkpt>
      <trkpt lat="43.49877" lon="1.12807">
        <ele>242</ele>
        <time>2020-01-15T18:55:42+01:00</time>
      </trkpt>
      <trkpt lat="43.49874" lon="1.12818">
        <ele>242</ele>
        <time>2020-01-15T18:55:49+01:00</time>
      </trkpt>
      <trkpt lat="43.49875" lon="1.12833">
        <ele>242</ele>
        <time>2020-01-15T18:55:57+01:00</time>
      </trkpt>
      <trkpt lat="43.49876" lon="1.12845">
        <ele>242</ele>
        <time>2020-01-15T18:56:05+01:00</time>
      </trkpt>
      <trkpt lat="43.49878" lon="1.12859">
        <ele>243</ele>
        <time>2020-01-15T18:56:13+01:00</time>
      </trkpt>
      <trkpt lat="43.49877" lon="1.12871">
        <ele>243</ele>
        <time>2020-01-15T18:56:20+01:00</time>
      </trkpt>
      <trkpt lat="43.49878" lon="1.12885">
        <ele>243</ele>
        <time>2020-01-15T18:56:28+01:00</time>
      </trkpt>
      <trkpt lat="43.49879" lon="1.12898">
        <ele>243</ele>
        <time>2020-01-15T18:56:36+01:00</time>
      </trkpt>
      <trkpt lat="43.49879" lon="1.12911">
        <ele>243</ele>
        <time>2020-01-15T18:56:43+01:00</time>
      </trkpt>
      <trkpt lat="43.49881" lon="1.12924">
        <ele>243</ele>
        <time>2020-01-15T18:56:51+01:00</time>
      </trkpt>
      <trkpt lat="43.49882" lon="1.12936">
        <ele>243</ele>
        <time>2020-01-15T18:56:58+01:00</time>
      </trkpt>
      <trkpt lat="43.49883" lon="1.12949">
        <ele>243</ele>
        <time>2020-01-15T18:57:06+01:00</time>
      </trkpt>
      <trkpt lat="43.49882" lon="1.12962">
        <ele>243</ele>
        <time>2020-01-15T18:57:13+01:00</time>
      </trkpt>
      <trkpt lat="43.49882" lon="1.12975">
        <ele>243</ele>
        <time>2020-01-15T18:57:21+01:00</time>
      </trkpt>
      <trkpt lat="43.4988" lon="1.12988">
        <ele>243</ele>
        <time>2020-01-15T18:57:29+01:00</time>
      </trkpt>
      <trkpt lat="43.49878" lon="1.13001">
        <ele>243</ele>
        <time>2020-01-15T18:57:36+01:00</time>
      </trkpt>
      <trkpt lat="43.49876" lon="1.13013">
        <ele>243</ele>
        <time>2020-01-15T18:57:44+01:00</time>
      </trkpt>
      <trkpt lat="43.49874" lon="1.13026">
        <ele>243</ele>
        <time>2020-01-15T18:57:51+01:00</time>
      </trkpt>
      <trkpt lat="43.49874" lon="1.13038">
        <ele>243</ele>
        <time>2020-01-15T18:57:58+01:00</time>
      </trkpt>
      <trkpt lat="43.49875" lon="1.13051">
        <ele>243</ele>
        <time>2020-01-15T18:58:06+01:00</time>
      </trkpt>
      <trkpt lat="43.49878" lon="1.13064">
        <ele>244</ele>
        <time>2020-01-15T18:58:14+01:00</time>
      </trkpt>
      <trkpt lat="43.49879" lon="1.13078">
        <ele>244</ele>
        <time>2020-01-15T18:58:22+01:00</time>
      </trkpt>
      <trkpt lat="43.49879" lon="1.13091">
        <ele>245</ele>
        <time>2020-01-15T18:58:30+01:00</time>
      </trkpt>
      <trkpt lat="43.49875" lon="1.13102">
        <ele>244</ele>
        <time>2020-01-15T18:58:37+01:00</time>
      </trkpt>
      <trkpt lat="43.49871" lon="1.13115">
        <ele>244</ele>
        <time>2020-01-15T18:58:45+01:00</time>
      </trkpt>
      <trkpt lat="43.4987" lon="1.13129">
        <ele>244</ele>
        <time>2020-01-15T18:58:53+01:00</time>
      </trkpt>
      <trkpt lat="43.49869" lon="1.13142">
        <ele>243</ele>
        <time>2020-01-15T18:59:01+01:00</time>
      </trkpt>
      <trkpt lat="43.49868" lon="1.13155">
        <ele>243</ele>
        <time>2020-01-15T18:59:08+01:00</time>
      </trkpt>
      <trkpt lat="43.49859" lon="1.13155">
        <ele>242</ele>
        <time>2020-01-15T18:59:15+01:00</time>
      </trkpt>
      <trkpt lat="43.4985" lon="1.13156">
        <ele>241</ele>
        <time>2020-01-15T18:59:23+01:00</time>
      </trkpt>
      <trkpt lat="43.49839" lon="1.13153">
        <ele>240</ele>
        <time>2020-01-15T18:59:31+01:00</time>
      </trkpt>
      <trkpt lat="43.49829" lon="1.13147">
        <ele>240</ele>
        <time>2020-01-15T18:59:40+01:00</time>
      </trkpt>
      <trkpt lat="43.4982" lon="1.13144">
        <ele>240</ele>
        <time>2020-01-15T18:59:48+01:00</time>
      </trkpt>
      <trkpt lat="43.4981" lon="1.13143">
        <ele>240</ele>
        <time>2020-01-15T18:59:55+01:00</time>
      </trkpt>
      <trkpt lat="43.498" lon="1.13139">
        <ele>240</ele>
        <time>2020-01-15T19:00:04+01:00</time>
      </trkpt>
      <trkpt lat="43.49791" lon="1.13137">
        <ele>239</ele>
        <time>2020-01-15T19:00:11+01:00</time>
      </trkpt>
      <trkpt lat="43.49782" lon="1.13133">
        <ele>239</ele>
        <time>2020-01-15T19:00:19+01:00</time>
      </trkpt>
      <trkpt lat="43.49772" lon="1.13129">
        <ele>239</ele>
        <time>2020-01-15T19:00:28+01:00</time>
      </trkpt>
      <trkpt lat="43.49762" lon="1.13123">
        <ele>240</ele>
        <time>2020-01-15T19:00:36+01:00</time>
      </trkpt>
      <trkpt lat="43.49753" lon="1.13119">
        <ele>240</ele>
        <time>2020-01-15T19:00:44+01:00</time>
      </trkpt>
      <trkpt lat="43.49744" lon="1.13117">
        <ele>240</ele>
        <time>2020-01-15T19:00:51+01:00</time>
      </trkpt>
      <trkpt lat="43.49734" lon="1.13113">
        <ele>240</ele>
        <time>2020-01-15T19:00:59+01:00</time>
      </trkpt>
      <trkpt lat="43.49725" lon="1.1311">
        <ele>240</ele>
        <time>2020-01-15T19:01:07+01:00</time>
      </trkpt>
      <trkpt lat="43.49716" lon="1.13108">
        <ele>240</ele>
        <time>2020-01-15T19:01:14+01:00</time>
      </trkpt>
      <trkpt lat="43.49706" lon="1.13104">
        <ele>240</ele>
        <time>2020-01-15T19:01:22+01:00</time>
      </trkpt>
      <trkpt lat="43.49695" lon="1.131">
        <ele>240</ele>
        <time>2020-01-15T19:01:31+01:00</time>
      </trkpt>
      <trkpt lat="43.49685" lon="1.13096">
        <ele>240</ele>
        <time>2020-01-15T19:01:40+01:00</time>
      </trkpt>
      <trkpt lat="43.49676" lon="1.13093">
        <ele>240</ele>
        <time>2020-01-15T19:01:47+01:00</time>
      </trkpt>
      <trkpt lat="43.49667" lon="1.13091">
        <ele>240</ele>
        <time>2020-01-15T19:01:55+01:00</time>
      </trkpt>
      <trkpt lat="43.49657" lon="1.1309">
        <ele>239</ele>
        <time>2020-01-15T19:02:02+01:00</time>
      </trkpt>
      <trkpt lat="43.49649" lon="1.13086">
        <ele>239</ele>
        <time>2020-01-15T19:02:10+01:00</time>
      </trkpt>
      <trkpt lat="43.49639" lon="1.13083">
        <ele>239</ele>
        <time>2020-01-15T19:02:17+01:00</time>
      </trkpt>
      <trkpt lat="43.49631" lon="1.13077">
        <ele>239</ele>
        <time>2020-01-15T19:02:25+01:00</time>
      </trkpt>
      <trkpt lat="43.49622" lon="1.13074">
        <ele>240</ele>
        <time>2020-01-15T19:02:32+01:00</time>
      </trkpt>
      <trkpt lat="43.49613" lon="1.13074">
        <ele>239</ele>
        <time>2020-01-15T19:02:40+01:00</time>
      </trkpt>
      <trkpt lat="43.49603" lon="1.1307">
        <ele>240</ele>
        <time>2020-01-15T19:02:48+01:00</time>
      </trkpt>
      <trkpt lat="43.49593" lon="1.13066">
        <ele>241</ele>
        <time>2020-01-15T19:02:56+01:00</time>
      </trkpt>
      <trkpt lat="43.49585" lon="1.13062">
        <ele>241</ele>
        <time>2020-01-15T19:03:03+01:00</time>
      </trkpt>
      <trkpt lat="43.49577" lon="1.13054">
        <ele>242</ele>
        <time>2020-01-15T19:03:18+01:00</time>
      </trkpt>
    </trkseg>
  </trk>
</gpx>